<?xml version="1.0" encoding="UTF-8" standalone="no" ?>
<gpx xmlns="http://www.topografix.com/GPX/1/1" xmlns:xsi="http://www.w3.org/2001/XMLSchema-instance" xsi:schemaLocation="http://www.topografix.com/GPX/1/1 http://www.topografix.com/GPX/1/1/gpx.xsd" version="1.1" creator="VisuGPX - https://www.visugpx.com">
  <metadata>
    <name>lundi 2015 08</name>
    <desc><![CDATA[cumul aout 2015]]></desc>
  </metadata>
  <trk>
    <name><![CDATA[lundi 2015 08 31 rando lune]]></name>
    <extensions>
      <line xmlns="http://www.topografix.com/GPX/gpx_style/0/2">
        <color>000000</color>
      </line>
    </extensions>
    <trkseg>
      <trkpt lat="48.86976" lon="2.3503">
        <ele>77.400001525879</ele>
        <time>2015-08-31T19:06:05Z</time>
      </trkpt>
      <trkpt lat="48.86979" lon="2.35034">
        <ele>74</ele>
        <time>2015-08-31T19:06:07Z</time>
      </trkpt>
      <trkpt lat="48.86977" lon="2.35051">
        <ele>66.400001525879</ele>
        <time>2015-08-31T19:06:10Z</time>
      </trkpt>
      <trkpt lat="48.8698" lon="2.3507">
        <ele>57.400001525879</ele>
        <time>2015-08-31T19:06:13Z</time>
      </trkpt>
      <trkpt lat="48.86975" lon="2.35087">
        <ele>43</ele>
        <time>2015-08-31T19:06:18Z</time>
      </trkpt>
      <trkpt lat="48.8697" lon="2.35093">
        <ele>42</ele>
        <time>2015-08-31T19:06:19Z</time>
      </trkpt>
      <trkpt lat="48.86972" lon="2.35101">
        <ele>31.200000762939</ele>
        <time>2015-08-31T19:06:23Z</time>
      </trkpt>
      <trkpt lat="48.86973" lon="2.35106">
        <ele>32.20000076294</ele>
        <time>2015-08-31T19:06:25Z</time>
      </trkpt>
      <trkpt lat="48.86976" lon="2.35117">
        <ele>33.400001525879</ele>
        <time>2015-08-31T19:06:29Z</time>
      </trkpt>
      <trkpt lat="48.86997" lon="2.35152">
        <ele>37.79999923706</ele>
        <time>2015-08-31T19:06:44Z</time>
      </trkpt>
      <trkpt lat="48.87007" lon="2.35183">
        <ele>40.400001525879</ele>
        <time>2015-08-31T19:06:56Z</time>
      </trkpt>
      <trkpt lat="48.87002" lon="2.3521">
        <ele>42.599998474121</ele>
        <time>2015-08-31T19:07:07Z</time>
      </trkpt>
      <trkpt lat="48.86999" lon="2.35223">
        <ele>43.79999923706</ele>
        <time>2015-08-31T19:07:13Z</time>
      </trkpt>
      <trkpt lat="48.86981" lon="2.35241">
        <ele>45.20000076294</ele>
        <time>2015-08-31T19:07:28Z</time>
      </trkpt>
      <trkpt lat="48.86979" lon="2.35242">
        <ele>45.400001525879</ele>
        <time>2015-08-31T19:07:30Z</time>
      </trkpt>
      <trkpt lat="48.86979" lon="2.35241">
        <ele>45.20000076294</ele>
        <time>2015-08-31T19:07:31Z</time>
      </trkpt>
      <trkpt lat="48.8696" lon="2.35244">
        <ele>46.79999923706</ele>
        <time>2015-08-31T19:07:59Z</time>
      </trkpt>
      <trkpt lat="48.8694" lon="2.35239">
        <ele>45</ele>
        <time>2015-08-31T19:08:07Z</time>
      </trkpt>
      <trkpt lat="48.86925" lon="2.35253">
        <ele>46</ele>
        <time>2015-08-31T19:08:18Z</time>
      </trkpt>
      <trkpt lat="48.86922" lon="2.35283">
        <ele>47.79999923706</ele>
        <time>2015-08-31T19:08:27Z</time>
      </trkpt>
      <trkpt lat="48.86921" lon="2.35314">
        <ele>48.79999923706</ele>
        <time>2015-08-31T19:08:35Z</time>
      </trkpt>
      <trkpt lat="48.86912" lon="2.35343">
        <ele>48.400001525879</ele>
        <time>2015-08-31T19:08:42Z</time>
      </trkpt>
      <trkpt lat="48.86904" lon="2.35369">
        <ele>46.20000076294</ele>
        <time>2015-08-31T19:08:48Z</time>
      </trkpt>
      <trkpt lat="48.86903" lon="2.35378">
        <ele>45.599998474121</ele>
        <time>2015-08-31T19:08:52Z</time>
      </trkpt>
      <trkpt lat="48.86898" lon="2.35405">
        <ele>48.400001525879</ele>
        <time>2015-08-31T19:09:02Z</time>
      </trkpt>
      <trkpt lat="48.86891" lon="2.35433">
        <ele>51.599998474121</ele>
        <time>2015-08-31T19:09:12Z</time>
      </trkpt>
      <trkpt lat="48.86884" lon="2.35464">
        <ele>51.79999923706</ele>
        <time>2015-08-31T19:09:18Z</time>
      </trkpt>
      <trkpt lat="48.86871" lon="2.35489">
        <ele>48.599998474121</ele>
        <time>2015-08-31T19:09:22Z</time>
      </trkpt>
      <trkpt lat="48.8687" lon="2.35499">
        <ele>48</ele>
        <time>2015-08-31T19:09:26Z</time>
      </trkpt>
      <trkpt lat="48.86869" lon="2.35508">
        <ele>49.20000076294</ele>
        <time>2015-08-31T19:09:31Z</time>
      </trkpt>
      <trkpt lat="48.8685" lon="2.35512">
        <ele>51</ele>
        <time>2015-08-31T19:09:37Z</time>
      </trkpt>
      <trkpt lat="48.86831" lon="2.35505">
        <ele>52.400001525879</ele>
        <time>2015-08-31T19:09:43Z</time>
      </trkpt>
      <trkpt lat="48.8681" lon="2.35496">
        <ele>53</ele>
        <time>2015-08-31T19:09:49Z</time>
      </trkpt>
      <trkpt lat="48.86789" lon="2.35487">
        <ele>52.79999923706</ele>
        <time>2015-08-31T19:09:55Z</time>
      </trkpt>
      <trkpt lat="48.86771" lon="2.35479">
        <ele>53.400001525879</ele>
        <time>2015-08-31T19:10:00Z</time>
      </trkpt>
      <trkpt lat="48.86753" lon="2.35471">
        <ele>53.400001525879</ele>
        <time>2015-08-31T19:10:05Z</time>
      </trkpt>
      <trkpt lat="48.86733" lon="2.35467">
        <ele>51.79999923706</ele>
        <time>2015-08-31T19:10:10Z</time>
      </trkpt>
      <trkpt lat="48.86715" lon="2.35452">
        <ele>53.599998474121</ele>
        <time>2015-08-31T19:10:15Z</time>
      </trkpt>
      <trkpt lat="48.86696" lon="2.3544">
        <ele>53</ele>
        <time>2015-08-31T19:10:20Z</time>
      </trkpt>
      <trkpt lat="48.86677" lon="2.35429">
        <ele>51.400001525879</ele>
        <time>2015-08-31T19:10:25Z</time>
      </trkpt>
      <trkpt lat="48.86658" lon="2.35418">
        <ele>50.599998474121</ele>
        <time>2015-08-31T19:10:30Z</time>
      </trkpt>
      <trkpt lat="48.86639" lon="2.35407">
        <ele>48.79999923706</ele>
        <time>2015-08-31T19:10:35Z</time>
      </trkpt>
      <trkpt lat="48.86622" lon="2.35394">
        <ele>48.400001525879</ele>
        <time>2015-08-31T19:10:40Z</time>
      </trkpt>
      <trkpt lat="48.86605" lon="2.35385">
        <ele>39.20000076294</ele>
        <time>2015-08-31T19:10:49Z</time>
      </trkpt>
      <trkpt lat="48.86595" lon="2.35407">
        <ele>44.20000076294</ele>
        <time>2015-08-31T19:11:08Z</time>
      </trkpt>
      <trkpt lat="48.86588" lon="2.35433">
        <ele>46</ele>
        <time>2015-08-31T19:11:12Z</time>
      </trkpt>
      <trkpt lat="48.86583" lon="2.35462">
        <ele>48.400001525879</ele>
        <time>2015-08-31T19:11:17Z</time>
      </trkpt>
      <trkpt lat="48.86577" lon="2.35493">
        <ele>50.599998474121</ele>
        <time>2015-08-31T19:11:22Z</time>
      </trkpt>
      <trkpt lat="48.86572" lon="2.3552">
        <ele>50.400001525879</ele>
        <time>2015-08-31T19:11:26Z</time>
      </trkpt>
      <trkpt lat="48.86565" lon="2.35548">
        <ele>50.79999923706</ele>
        <time>2015-08-31T19:11:31Z</time>
      </trkpt>
      <trkpt lat="48.86557" lon="2.35576">
        <ele>50.20000076294</ele>
        <time>2015-08-31T19:11:36Z</time>
      </trkpt>
      <trkpt lat="48.86551" lon="2.35606">
        <ele>50.400001525879</ele>
        <time>2015-08-31T19:11:41Z</time>
      </trkpt>
      <trkpt lat="48.86549" lon="2.35633">
        <ele>52.400001525879</ele>
        <time>2015-08-31T19:11:45Z</time>
      </trkpt>
      <trkpt lat="48.86547" lon="2.35661">
        <ele>56</ele>
        <time>2015-08-31T19:11:49Z</time>
      </trkpt>
      <trkpt lat="48.86545" lon="2.35674">
        <ele>57.79999923706</ele>
        <time>2015-08-31T19:11:51Z</time>
      </trkpt>
      <trkpt lat="48.86538" lon="2.35701">
        <ele>60.400001525879</ele>
        <time>2015-08-31T19:11:55Z</time>
      </trkpt>
      <trkpt lat="48.86532" lon="2.35729">
        <ele>61</ele>
        <time>2015-08-31T19:11:59Z</time>
      </trkpt>
      <trkpt lat="48.86525" lon="2.35761">
        <ele>61.20000076294</ele>
        <time>2015-08-31T19:12:04Z</time>
      </trkpt>
      <trkpt lat="48.86518" lon="2.35788">
        <ele>62.599998474121</ele>
        <time>2015-08-31T19:12:08Z</time>
      </trkpt>
      <trkpt lat="48.86512" lon="2.35807">
        <ele>62.599998474121</ele>
        <time>2015-08-31T19:12:11Z</time>
      </trkpt>
      <trkpt lat="48.86504" lon="2.35835">
        <ele>63.599998474121</ele>
        <time>2015-08-31T19:12:16Z</time>
      </trkpt>
      <trkpt lat="48.86495" lon="2.35863">
        <ele>64.199996948242</ele>
        <time>2015-08-31T19:12:20Z</time>
      </trkpt>
      <trkpt lat="48.86487" lon="2.35888">
        <ele>64.599998474121</ele>
        <time>2015-08-31T19:12:24Z</time>
      </trkpt>
      <trkpt lat="48.86481" lon="2.35907">
        <ele>64.199996948242</ele>
        <time>2015-08-31T19:12:28Z</time>
      </trkpt>
      <trkpt lat="48.86476" lon="2.35922">
        <ele>65.199996948242</ele>
        <time>2015-08-31T19:12:30Z</time>
      </trkpt>
      <trkpt lat="48.86471" lon="2.35953">
        <ele>61.79999923706</ele>
        <time>2015-08-31T19:12:34Z</time>
      </trkpt>
      <trkpt lat="48.86469" lon="2.35958">
        <ele>61.400001525879</ele>
        <time>2015-08-31T19:12:35Z</time>
      </trkpt>
      <trkpt lat="48.86454" lon="2.35984">
        <ele>60</ele>
        <time>2015-08-31T19:12:40Z</time>
      </trkpt>
      <trkpt lat="48.86438" lon="2.36006">
        <ele>58.79999923706</ele>
        <time>2015-08-31T19:12:45Z</time>
      </trkpt>
      <trkpt lat="48.86434" lon="2.36013">
        <ele>55.400001525879</ele>
        <time>2015-08-31T19:12:46Z</time>
      </trkpt>
      <trkpt lat="48.86421" lon="2.36037">
        <ele>53.599998474121</ele>
        <time>2015-08-31T19:12:51Z</time>
      </trkpt>
      <trkpt lat="48.86411" lon="2.36052">
        <ele>50.20000076294</ele>
        <time>2015-08-31T19:12:54Z</time>
      </trkpt>
      <trkpt lat="48.86396" lon="2.36073">
        <ele>46.79999923706</ele>
        <time>2015-08-31T19:12:59Z</time>
      </trkpt>
      <trkpt lat="48.86381" lon="2.36096">
        <ele>45.20000076294</ele>
        <time>2015-08-31T19:13:04Z</time>
      </trkpt>
      <trkpt lat="48.86378" lon="2.36099">
        <ele>44.400001525879</ele>
        <time>2015-08-31T19:13:05Z</time>
      </trkpt>
      <trkpt lat="48.86365" lon="2.36115">
        <ele>43.599998474121</ele>
        <time>2015-08-31T19:13:09Z</time>
      </trkpt>
      <trkpt lat="48.86362" lon="2.36119">
        <ele>43.20000076294</ele>
        <time>2015-08-31T19:13:10Z</time>
      </trkpt>
      <trkpt lat="48.86353" lon="2.36132">
        <ele>43.20000076294</ele>
        <time>2015-08-31T19:13:13Z</time>
      </trkpt>
      <trkpt lat="48.86337" lon="2.36156">
        <ele>44.599998474121</ele>
        <time>2015-08-31T19:13:18Z</time>
      </trkpt>
      <trkpt lat="48.86328" lon="2.3617">
        <ele>45.599998474121</ele>
        <time>2015-08-31T19:13:21Z</time>
      </trkpt>
      <trkpt lat="48.86314" lon="2.36194">
        <ele>46.400001525879</ele>
        <time>2015-08-31T19:13:26Z</time>
      </trkpt>
      <trkpt lat="48.86306" lon="2.3621">
        <ele>46.79999923706</ele>
        <time>2015-08-31T19:13:29Z</time>
      </trkpt>
      <trkpt lat="48.86293" lon="2.36229">
        <ele>48</ele>
        <time>2015-08-31T19:13:33Z</time>
      </trkpt>
      <trkpt lat="48.8629" lon="2.36233">
        <ele>48.20000076294</ele>
        <time>2015-08-31T19:13:34Z</time>
      </trkpt>
      <trkpt lat="48.86278" lon="2.36261">
        <ele>48.79999923706</ele>
        <time>2015-08-31T19:13:39Z</time>
      </trkpt>
      <trkpt lat="48.86275" lon="2.36266">
        <ele>49.20000076294</ele>
        <time>2015-08-31T19:13:40Z</time>
      </trkpt>
      <trkpt lat="48.86263" lon="2.36288">
        <ele>51.20000076294</ele>
        <time>2015-08-31T19:13:44Z</time>
      </trkpt>
      <trkpt lat="48.8625" lon="2.36313">
        <ele>53</ele>
        <time>2015-08-31T19:13:49Z</time>
      </trkpt>
      <trkpt lat="48.86238" lon="2.36338">
        <ele>56</ele>
        <time>2015-08-31T19:13:54Z</time>
      </trkpt>
      <trkpt lat="48.86227" lon="2.36362">
        <ele>57.400001525879</ele>
        <time>2015-08-31T19:13:58Z</time>
      </trkpt>
      <trkpt lat="48.86214" lon="2.36385">
        <ele>59</ele>
        <time>2015-08-31T19:14:02Z</time>
      </trkpt>
      <trkpt lat="48.86201" lon="2.36408">
        <ele>60</ele>
        <time>2015-08-31T19:14:06Z</time>
      </trkpt>
      <trkpt lat="48.86199" lon="2.36413">
        <ele>60</ele>
        <time>2015-08-31T19:14:07Z</time>
      </trkpt>
      <trkpt lat="48.86193" lon="2.36431">
        <ele>59.20000076294</ele>
        <time>2015-08-31T19:14:12Z</time>
      </trkpt>
      <trkpt lat="48.86193" lon="2.36437">
        <ele>58</ele>
        <time>2015-08-31T19:14:14Z</time>
      </trkpt>
      <trkpt lat="48.8618" lon="2.36445">
        <ele>55.79999923706</ele>
        <time>2015-08-31T19:15:04Z</time>
      </trkpt>
      <trkpt lat="48.86159" lon="2.36448">
        <ele>55.79999923706</ele>
        <time>2015-08-31T19:15:11Z</time>
      </trkpt>
      <trkpt lat="48.86138" lon="2.36455">
        <ele>53.20000076294</ele>
        <time>2015-08-31T19:15:19Z</time>
      </trkpt>
      <trkpt lat="48.8612" lon="2.36456">
        <ele>52.400001525879</ele>
        <time>2015-08-31T19:15:24Z</time>
      </trkpt>
      <trkpt lat="48.861" lon="2.36458">
        <ele>51.400001525879</ele>
        <time>2015-08-31T19:15:29Z</time>
      </trkpt>
      <trkpt lat="48.86081" lon="2.36461">
        <ele>51.599998474121</ele>
        <time>2015-08-31T19:15:34Z</time>
      </trkpt>
      <trkpt lat="48.86059" lon="2.36463">
        <ele>52.79999923706</ele>
        <time>2015-08-31T19:15:39Z</time>
      </trkpt>
      <trkpt lat="48.86038" lon="2.3646">
        <ele>53.79999923706</ele>
        <time>2015-08-31T19:15:44Z</time>
      </trkpt>
      <trkpt lat="48.86018" lon="2.36463">
        <ele>53.400001525879</ele>
        <time>2015-08-31T19:15:48Z</time>
      </trkpt>
      <trkpt lat="48.86" lon="2.36467">
        <ele>51.79999923706</ele>
        <time>2015-08-31T19:15:52Z</time>
      </trkpt>
      <trkpt lat="48.85981" lon="2.36467">
        <ele>51.599998474121</ele>
        <time>2015-08-31T19:15:56Z</time>
      </trkpt>
      <trkpt lat="48.85971" lon="2.36467">
        <ele>51.79999923706</ele>
        <time>2015-08-31T19:15:58Z</time>
      </trkpt>
      <trkpt lat="48.85952" lon="2.36465">
        <ele>53.20000076294</ele>
        <time>2015-08-31T19:16:02Z</time>
      </trkpt>
      <trkpt lat="48.85933" lon="2.36462">
        <ele>54.599998474121</ele>
        <time>2015-08-31T19:16:06Z</time>
      </trkpt>
      <trkpt lat="48.85912" lon="2.36462">
        <ele>56.20000076294</ele>
        <time>2015-08-31T19:16:10Z</time>
      </trkpt>
      <trkpt lat="48.8589" lon="2.36461">
        <ele>57.20000076294</ele>
        <time>2015-08-31T19:16:14Z</time>
      </trkpt>
      <trkpt lat="48.8587" lon="2.36459">
        <ele>57.79999923706</ele>
        <time>2015-08-31T19:16:18Z</time>
      </trkpt>
      <trkpt lat="48.8585" lon="2.36457">
        <ele>57.79999923706</ele>
        <time>2015-08-31T19:16:22Z</time>
      </trkpt>
      <trkpt lat="48.85833" lon="2.36456">
        <ele>58.400001525879</ele>
        <time>2015-08-31T19:16:25Z</time>
      </trkpt>
      <trkpt lat="48.85813" lon="2.36452">
        <ele>59.20000076294</ele>
        <time>2015-08-31T19:16:29Z</time>
      </trkpt>
      <trkpt lat="48.85794" lon="2.36451">
        <ele>59.79999923706</ele>
        <time>2015-08-31T19:16:33Z</time>
      </trkpt>
      <trkpt lat="48.85773" lon="2.36448">
        <ele>60.20000076294</ele>
        <time>2015-08-31T19:16:37Z</time>
      </trkpt>
      <trkpt lat="48.85752" lon="2.36449">
        <ele>60.79999923706</ele>
        <time>2015-08-31T19:16:41Z</time>
      </trkpt>
      <trkpt lat="48.85732" lon="2.36448">
        <ele>62</ele>
        <time>2015-08-31T19:16:45Z</time>
      </trkpt>
      <trkpt lat="48.85717" lon="2.36449">
        <ele>62.599998474121</ele>
        <time>2015-08-31T19:16:48Z</time>
      </trkpt>
      <trkpt lat="48.85699" lon="2.36451">
        <ele>63.400001525879</ele>
        <time>2015-08-31T19:16:52Z</time>
      </trkpt>
      <trkpt lat="48.85678" lon="2.36448">
        <ele>65.199996948242</ele>
        <time>2015-08-31T19:16:57Z</time>
      </trkpt>
      <trkpt lat="48.85671" lon="2.36446">
        <ele>65.599998474121</ele>
        <time>2015-08-31T19:16:59Z</time>
      </trkpt>
      <trkpt lat="48.85652" lon="2.3644">
        <ele>67.400001525879</ele>
        <time>2015-08-31T19:17:05Z</time>
      </trkpt>
      <trkpt lat="48.8564" lon="2.36432">
        <ele>69</ele>
        <time>2015-08-31T19:17:11Z</time>
      </trkpt>
      <trkpt lat="48.8564" lon="2.36445">
        <ele>68</ele>
        <time>2015-08-31T19:17:27Z</time>
      </trkpt>
      <trkpt lat="48.85631" lon="2.36471">
        <ele>65</ele>
        <time>2015-08-31T19:17:32Z</time>
      </trkpt>
      <trkpt lat="48.85624" lon="2.36498">
        <ele>63.400001525879</ele>
        <time>2015-08-31T19:17:38Z</time>
      </trkpt>
      <trkpt lat="48.85618" lon="2.36529">
        <ele>62.599998474121</ele>
        <time>2015-08-31T19:17:43Z</time>
      </trkpt>
      <trkpt lat="48.85612" lon="2.36559">
        <ele>59.79999923706</ele>
        <time>2015-08-31T19:17:48Z</time>
      </trkpt>
      <trkpt lat="48.85608" lon="2.3659">
        <ele>58.79999923706</ele>
        <time>2015-08-31T19:17:53Z</time>
      </trkpt>
      <trkpt lat="48.85604" lon="2.36622">
        <ele>56.20000076294</ele>
        <time>2015-08-31T19:17:58Z</time>
      </trkpt>
      <trkpt lat="48.85599" lon="2.36644">
        <ele>55.79999923706</ele>
        <time>2015-08-31T19:18:03Z</time>
      </trkpt>
      <trkpt lat="48.85581" lon="2.3664">
        <ele>58</ele>
        <time>2015-08-31T19:18:08Z</time>
      </trkpt>
      <trkpt lat="48.85574" lon="2.36636">
        <ele>59.20000076294</ele>
        <time>2015-08-31T19:18:10Z</time>
      </trkpt>
      <trkpt lat="48.85553" lon="2.36627">
        <ele>62</ele>
        <time>2015-08-31T19:18:15Z</time>
      </trkpt>
      <trkpt lat="48.85534" lon="2.3662">
        <ele>61.599998474121</ele>
        <time>2015-08-31T19:18:19Z</time>
      </trkpt>
      <trkpt lat="48.85513" lon="2.3661">
        <ele>63</ele>
        <time>2015-08-31T19:18:24Z</time>
      </trkpt>
      <trkpt lat="48.85497" lon="2.36593">
        <ele>63.20000076294</ele>
        <time>2015-08-31T19:18:29Z</time>
      </trkpt>
      <trkpt lat="48.85499" lon="2.36563">
        <ele>62.79999923706</ele>
        <time>2015-08-31T19:18:34Z</time>
      </trkpt>
      <trkpt lat="48.85501" lon="2.36558">
        <ele>62</ele>
        <time>2015-08-31T19:18:35Z</time>
      </trkpt>
      <trkpt lat="48.85508" lon="2.36536">
        <ele>50.599998474121</ele>
        <time>2015-08-31T19:18:41Z</time>
      </trkpt>
      <trkpt lat="48.85491" lon="2.3652">
        <ele>46.20000076294</ele>
        <time>2015-08-31T19:18:47Z</time>
      </trkpt>
      <trkpt lat="48.8547" lon="2.36512">
        <ele>44.599998474121</ele>
        <time>2015-08-31T19:18:52Z</time>
      </trkpt>
      <trkpt lat="48.8545" lon="2.36506">
        <ele>44.20000076294</ele>
        <time>2015-08-31T19:18:57Z</time>
      </trkpt>
      <trkpt lat="48.85431" lon="2.36499">
        <ele>43.599998474121</ele>
        <time>2015-08-31T19:19:02Z</time>
      </trkpt>
      <trkpt lat="48.85411" lon="2.36494">
        <ele>43.20000076294</ele>
        <time>2015-08-31T19:19:08Z</time>
      </trkpt>
      <trkpt lat="48.85401" lon="2.36496">
        <ele>42.599998474121</ele>
        <time>2015-08-31T19:19:13Z</time>
      </trkpt>
      <trkpt lat="48.85397" lon="2.36489">
        <ele>47</ele>
        <time>2015-08-31T19:19:22Z</time>
      </trkpt>
      <trkpt lat="48.8538" lon="2.36496">
        <ele>61.599998474121</ele>
        <time>2015-08-31T19:20:12Z</time>
      </trkpt>
      <trkpt lat="48.85373" lon="2.36526">
        <ele>62.20000076294</ele>
        <time>2015-08-31T19:20:19Z</time>
      </trkpt>
      <trkpt lat="48.85366" lon="2.36552">
        <ele>63.400001525879</ele>
        <time>2015-08-31T19:20:24Z</time>
      </trkpt>
      <trkpt lat="48.85359" lon="2.3658">
        <ele>64.599998474121</ele>
        <time>2015-08-31T19:20:29Z</time>
      </trkpt>
      <trkpt lat="48.85353" lon="2.36609">
        <ele>65.199996948242</ele>
        <time>2015-08-31T19:20:34Z</time>
      </trkpt>
      <trkpt lat="48.85345" lon="2.36633">
        <ele>66.400001525879</ele>
        <time>2015-08-31T19:20:39Z</time>
      </trkpt>
      <trkpt lat="48.85326" lon="2.36627">
        <ele>67.599998474121</ele>
        <time>2015-08-31T19:20:45Z</time>
      </trkpt>
      <trkpt lat="48.85307" lon="2.36619">
        <ele>67.599998474121</ele>
        <time>2015-08-31T19:20:51Z</time>
      </trkpt>
      <trkpt lat="48.85287" lon="2.36614">
        <ele>65.800003051758</ele>
        <time>2015-08-31T19:20:57Z</time>
      </trkpt>
      <trkpt lat="48.85268" lon="2.36612">
        <ele>64</ele>
        <time>2015-08-31T19:21:02Z</time>
      </trkpt>
      <trkpt lat="48.8525" lon="2.36605">
        <ele>62.599998474121</ele>
        <time>2015-08-31T19:21:07Z</time>
      </trkpt>
      <trkpt lat="48.8524" lon="2.36602">
        <ele>58.599998474121</ele>
        <time>2015-08-31T19:21:13Z</time>
      </trkpt>
      <trkpt lat="48.85235" lon="2.36605">
        <ele>56.20000076294</ele>
        <time>2015-08-31T19:21:19Z</time>
      </trkpt>
      <trkpt lat="48.85234" lon="2.36626">
        <ele>55.599998474121</ele>
        <time>2015-08-31T19:21:41Z</time>
      </trkpt>
      <trkpt lat="48.85244" lon="2.36655">
        <ele>56.400001525879</ele>
        <time>2015-08-31T19:21:47Z</time>
      </trkpt>
      <trkpt lat="48.85253" lon="2.36684">
        <ele>57.599998474121</ele>
        <time>2015-08-31T19:21:53Z</time>
      </trkpt>
      <trkpt lat="48.85263" lon="2.3671">
        <ele>59.79999923706</ele>
        <time>2015-08-31T19:21:58Z</time>
      </trkpt>
      <trkpt lat="48.85271" lon="2.36736">
        <ele>61.599998474121</ele>
        <time>2015-08-31T19:22:03Z</time>
      </trkpt>
      <trkpt lat="48.85277" lon="2.36766">
        <ele>60.599998474121</ele>
        <time>2015-08-31T19:22:08Z</time>
      </trkpt>
      <trkpt lat="48.85271" lon="2.36796">
        <ele>52.400001525879</ele>
        <time>2015-08-31T19:22:13Z</time>
      </trkpt>
      <trkpt lat="48.85269" lon="2.36802">
        <ele>52</ele>
        <time>2015-08-31T19:22:15Z</time>
      </trkpt>
      <trkpt lat="48.85276" lon="2.36829">
        <ele>49.20000076294</ele>
        <time>2015-08-31T19:22:22Z</time>
      </trkpt>
      <trkpt lat="48.85272" lon="2.36843">
        <ele>47.599998474121</ele>
        <time>2015-08-31T19:22:26Z</time>
      </trkpt>
      <trkpt lat="48.85263" lon="2.36869">
        <ele>39.599998474121</ele>
        <time>2015-08-31T19:22:34Z</time>
      </trkpt>
      <trkpt lat="48.8526" lon="2.36878">
        <ele>38.400001525879</ele>
        <time>2015-08-31T19:22:37Z</time>
      </trkpt>
      <trkpt lat="48.85253" lon="2.36898">
        <ele>35.599998474121</ele>
        <time>2015-08-31T19:22:46Z</time>
      </trkpt>
      <trkpt lat="48.8525" lon="2.36904">
        <ele>35.79999923706</ele>
        <time>2015-08-31T19:22:50Z</time>
      </trkpt>
      <trkpt lat="48.85247" lon="2.36911">
        <ele>37.599998474121</ele>
        <time>2015-08-31T19:23:02Z</time>
      </trkpt>
      <trkpt lat="48.85254" lon="2.36931">
        <ele>38.599998474121</ele>
        <time>2015-08-31T19:23:14Z</time>
      </trkpt>
      <trkpt lat="48.85265" lon="2.36947">
        <ele>40.400001525879</ele>
        <time>2015-08-31T19:23:39Z</time>
      </trkpt>
      <trkpt lat="48.85278" lon="2.36971">
        <ele>39.400001525879</ele>
        <time>2015-08-31T19:23:46Z</time>
      </trkpt>
      <trkpt lat="48.85292" lon="2.36989">
        <ele>38.20000076294</ele>
        <time>2015-08-31T19:23:52Z</time>
      </trkpt>
      <trkpt lat="48.85309" lon="2.37">
        <ele>37.20000076294</ele>
        <time>2015-08-31T19:24:01Z</time>
      </trkpt>
      <trkpt lat="48.85312" lon="2.37">
        <ele>38.79999923706</ele>
        <time>2015-08-31T19:25:38Z</time>
      </trkpt>
      <trkpt lat="48.85323" lon="2.37008">
        <ele>38.599998474121</ele>
        <time>2015-08-31T19:25:45Z</time>
      </trkpt>
      <trkpt lat="48.85332" lon="2.37006">
        <ele>38.79999923706</ele>
        <time>2015-08-31T19:25:50Z</time>
      </trkpt>
      <trkpt lat="48.85335" lon="2.37003">
        <ele>39.20000076294</ele>
        <time>2015-08-31T19:25:53Z</time>
      </trkpt>
      <trkpt lat="48.85342" lon="2.36993">
        <ele>40.20000076294</ele>
        <time>2015-08-31T19:26:11Z</time>
      </trkpt>
      <trkpt lat="48.85358" lon="2.36977">
        <ele>42</ele>
        <time>2015-08-31T19:26:21Z</time>
      </trkpt>
      <trkpt lat="48.85366" lon="2.36958">
        <ele>49</ele>
        <time>2015-08-31T19:26:55Z</time>
      </trkpt>
      <trkpt lat="48.85369" lon="2.36943">
        <ele>49.599998474121</ele>
        <time>2015-08-31T19:27:01Z</time>
      </trkpt>
      <trkpt lat="48.85388" lon="2.36942">
        <ele>50.400001525879</ele>
        <time>2015-08-31T19:27:10Z</time>
      </trkpt>
      <trkpt lat="48.85408" lon="2.36943">
        <ele>50.400001525879</ele>
        <time>2015-08-31T19:27:18Z</time>
      </trkpt>
      <trkpt lat="48.85424" lon="2.36954">
        <ele>45.599998474121</ele>
        <time>2015-08-31T19:27:23Z</time>
      </trkpt>
      <trkpt lat="48.85441" lon="2.36965">
        <ele>41.400001525879</ele>
        <time>2015-08-31T19:27:29Z</time>
      </trkpt>
      <trkpt lat="48.85458" lon="2.36978">
        <ele>39.20000076294</ele>
        <time>2015-08-31T19:27:34Z</time>
      </trkpt>
      <trkpt lat="48.85475" lon="2.36989">
        <ele>39.20000076294</ele>
        <time>2015-08-31T19:27:40Z</time>
      </trkpt>
      <trkpt lat="48.85494" lon="2.36999">
        <ele>42.400001525879</ele>
        <time>2015-08-31T19:27:46Z</time>
      </trkpt>
      <trkpt lat="48.85511" lon="2.37006">
        <ele>43.400001525879</ele>
        <time>2015-08-31T19:27:52Z</time>
      </trkpt>
      <trkpt lat="48.85519" lon="2.37011">
        <ele>43.79999923706</ele>
        <time>2015-08-31T19:27:56Z</time>
      </trkpt>
      <trkpt lat="48.8552" lon="2.37015">
        <ele>44.400001525879</ele>
        <time>2015-08-31T19:27:58Z</time>
      </trkpt>
      <trkpt lat="48.85538" lon="2.37024">
        <ele>44.20000076294</ele>
        <time>2015-08-31T19:28:08Z</time>
      </trkpt>
      <trkpt lat="48.85558" lon="2.37032">
        <ele>45.599998474121</ele>
        <time>2015-08-31T19:28:17Z</time>
      </trkpt>
      <trkpt lat="48.85577" lon="2.37038">
        <ele>49</ele>
        <time>2015-08-31T19:28:24Z</time>
      </trkpt>
      <trkpt lat="48.85597" lon="2.37045">
        <ele>52.79999923706</ele>
        <time>2015-08-31T19:28:31Z</time>
      </trkpt>
      <trkpt lat="48.85616" lon="2.3705">
        <ele>58.20000076294</ele>
        <time>2015-08-31T19:28:39Z</time>
      </trkpt>
      <trkpt lat="48.85634" lon="2.37058">
        <ele>65.800003051758</ele>
        <time>2015-08-31T19:28:46Z</time>
      </trkpt>
      <trkpt lat="48.85654" lon="2.37066">
        <ele>72</ele>
        <time>2015-08-31T19:28:54Z</time>
      </trkpt>
      <trkpt lat="48.85671" lon="2.37073">
        <ele>75.599998474121</ele>
        <time>2015-08-31T19:29:01Z</time>
      </trkpt>
      <trkpt lat="48.85689" lon="2.37077">
        <ele>78.199996948242</ele>
        <time>2015-08-31T19:29:08Z</time>
      </trkpt>
      <trkpt lat="48.85693" lon="2.37078">
        <ele>78.800003051758</ele>
        <time>2015-08-31T19:29:10Z</time>
      </trkpt>
      <trkpt lat="48.85699" lon="2.37079">
        <ele>81.400001525879</ele>
        <time>2015-08-31T19:29:16Z</time>
      </trkpt>
      <trkpt lat="48.85706" lon="2.3709">
        <ele>86.800003051758</ele>
        <time>2015-08-31T19:29:37Z</time>
      </trkpt>
      <trkpt lat="48.85706" lon="2.37091">
        <ele>86.800003051758</ele>
        <time>2015-08-31T19:29:39Z</time>
      </trkpt>
      <trkpt lat="48.85702" lon="2.37093">
        <ele>86.599998474121</ele>
        <time>2015-08-31T19:29:43Z</time>
      </trkpt>
      <trkpt lat="48.85704" lon="2.37098">
        <ele>87.599998474121</ele>
        <time>2015-08-31T19:30:13Z</time>
      </trkpt>
      <trkpt lat="48.85709" lon="2.37088">
        <ele>88.400001525879</ele>
        <time>2015-08-31T19:30:27Z</time>
      </trkpt>
      <trkpt lat="48.85728" lon="2.37093">
        <ele>88.199996948242</ele>
        <time>2015-08-31T19:30:37Z</time>
      </trkpt>
      <trkpt lat="48.85746" lon="2.37103">
        <ele>89.199996948242</ele>
        <time>2015-08-31T19:30:44Z</time>
      </trkpt>
      <trkpt lat="48.85765" lon="2.37111">
        <ele>91</ele>
        <time>2015-08-31T19:30:52Z</time>
      </trkpt>
      <trkpt lat="48.85783" lon="2.37119">
        <ele>88.800003051758</ele>
        <time>2015-08-31T19:30:59Z</time>
      </trkpt>
      <trkpt lat="48.85787" lon="2.37119">
        <ele>88.199996948242</ele>
        <time>2015-08-31T19:31:01Z</time>
      </trkpt>
      <trkpt lat="48.85786" lon="2.37103">
        <ele>84.400001525879</ele>
        <time>2015-08-31T19:31:11Z</time>
      </trkpt>
      <trkpt lat="48.8578" lon="2.37077">
        <ele>76.800003051758</ele>
        <time>2015-08-31T19:31:23Z</time>
      </trkpt>
      <trkpt lat="48.8577" lon="2.37052">
        <ele>67.800003051758</ele>
        <time>2015-08-31T19:31:32Z</time>
      </trkpt>
      <trkpt lat="48.85765" lon="2.37022">
        <ele>62.20000076294</ele>
        <time>2015-08-31T19:31:38Z</time>
      </trkpt>
      <trkpt lat="48.85758" lon="2.36993">
        <ele>57.599998474121</ele>
        <time>2015-08-31T19:31:44Z</time>
      </trkpt>
      <trkpt lat="48.8575" lon="2.36968">
        <ele>54.20000076294</ele>
        <time>2015-08-31T19:31:50Z</time>
      </trkpt>
      <trkpt lat="48.85742" lon="2.36939">
        <ele>47.400001525879</ele>
        <time>2015-08-31T19:31:57Z</time>
      </trkpt>
      <trkpt lat="48.85733" lon="2.36915">
        <ele>41.599998474121</ele>
        <time>2015-08-31T19:32:03Z</time>
      </trkpt>
      <trkpt lat="48.85719" lon="2.36892">
        <ele>36</ele>
        <time>2015-08-31T19:32:10Z</time>
      </trkpt>
      <trkpt lat="48.85705" lon="2.36871">
        <ele>31</ele>
        <time>2015-08-31T19:32:17Z</time>
      </trkpt>
      <trkpt lat="48.85704" lon="2.36856">
        <ele>33.20000076294</ele>
        <time>2015-08-31T19:32:27Z</time>
      </trkpt>
      <trkpt lat="48.85705" lon="2.36828">
        <ele>46.20000076294</ele>
        <time>2015-08-31T19:32:49Z</time>
      </trkpt>
      <trkpt lat="48.85708" lon="2.36822">
        <ele>47.20000076294</ele>
        <time>2015-08-31T19:32:51Z</time>
      </trkpt>
      <trkpt lat="48.85715" lon="2.36818">
        <ele>47.599998474121</ele>
        <time>2015-08-31T19:32:55Z</time>
      </trkpt>
      <trkpt lat="48.85733" lon="2.3681">
        <ele>47.400001525879</ele>
        <time>2015-08-31T19:33:02Z</time>
      </trkpt>
      <trkpt lat="48.85751" lon="2.36797">
        <ele>45</ele>
        <time>2015-08-31T19:33:08Z</time>
      </trkpt>
      <trkpt lat="48.85761" lon="2.36788">
        <ele>45.20000076294</ele>
        <time>2015-08-31T19:33:17Z</time>
      </trkpt>
      <trkpt lat="48.85768" lon="2.36782">
        <ele>50</ele>
        <time>2015-08-31T19:34:02Z</time>
      </trkpt>
      <trkpt lat="48.85763" lon="2.36756">
        <ele>52.20000076294</ele>
        <time>2015-08-31T19:34:12Z</time>
      </trkpt>
      <trkpt lat="48.85764" lon="2.36754">
        <ele>52.400001525879</ele>
        <time>2015-08-31T19:34:13Z</time>
      </trkpt>
      <trkpt lat="48.85765" lon="2.36742">
        <ele>53</ele>
        <time>2015-08-31T19:34:17Z</time>
      </trkpt>
      <trkpt lat="48.85768" lon="2.36711">
        <ele>53.20000076294</ele>
        <time>2015-08-31T19:34:25Z</time>
      </trkpt>
      <trkpt lat="48.85775" lon="2.36685">
        <ele>52.400001525879</ele>
        <time>2015-08-31T19:34:30Z</time>
      </trkpt>
      <trkpt lat="48.85781" lon="2.36649">
        <ele>50.79999923706</ele>
        <time>2015-08-31T19:34:35Z</time>
      </trkpt>
      <trkpt lat="48.85792" lon="2.36626">
        <ele>49.400001525879</ele>
        <time>2015-08-31T19:34:39Z</time>
      </trkpt>
      <trkpt lat="48.85803" lon="2.366">
        <ele>48.599998474121</ele>
        <time>2015-08-31T19:34:44Z</time>
      </trkpt>
      <trkpt lat="48.85807" lon="2.36573">
        <ele>47.20000076294</ele>
        <time>2015-08-31T19:34:50Z</time>
      </trkpt>
      <trkpt lat="48.85807" lon="2.36542">
        <ele>46.400001525879</ele>
        <time>2015-08-31T19:34:55Z</time>
      </trkpt>
      <trkpt lat="48.8581" lon="2.36512">
        <ele>46.20000076294</ele>
        <time>2015-08-31T19:35:00Z</time>
      </trkpt>
      <trkpt lat="48.85814" lon="2.36482">
        <ele>46.400001525879</ele>
        <time>2015-08-31T19:35:07Z</time>
      </trkpt>
      <trkpt lat="48.85816" lon="2.36469">
        <ele>45.79999923706</ele>
        <time>2015-08-31T19:35:12Z</time>
      </trkpt>
      <trkpt lat="48.85824" lon="2.36441">
        <ele>49.599998474121</ele>
        <time>2015-08-31T19:35:32Z</time>
      </trkpt>
      <trkpt lat="48.85833" lon="2.36416">
        <ele>49.400001525879</ele>
        <time>2015-08-31T19:35:38Z</time>
      </trkpt>
      <trkpt lat="48.85837" lon="2.36387">
        <ele>48.79999923706</ele>
        <time>2015-08-31T19:35:44Z</time>
      </trkpt>
      <trkpt lat="48.85848" lon="2.36362">
        <ele>48</ele>
        <time>2015-08-31T19:35:51Z</time>
      </trkpt>
      <trkpt lat="48.85858" lon="2.36334">
        <ele>45.599998474121</ele>
        <time>2015-08-31T19:35:58Z</time>
      </trkpt>
      <trkpt lat="48.85867" lon="2.36311">
        <ele>43.400001525879</ele>
        <time>2015-08-31T19:36:04Z</time>
      </trkpt>
      <trkpt lat="48.8587" lon="2.36296">
        <ele>43</ele>
        <time>2015-08-31T19:36:08Z</time>
      </trkpt>
      <trkpt lat="48.85859" lon="2.36279">
        <ele>42.79999923706</ele>
        <time>2015-08-31T19:36:15Z</time>
      </trkpt>
      <trkpt lat="48.85841" lon="2.36267">
        <ele>44.400001525879</ele>
        <time>2015-08-31T19:36:21Z</time>
      </trkpt>
      <trkpt lat="48.85825" lon="2.36252">
        <ele>44</ele>
        <time>2015-08-31T19:36:28Z</time>
      </trkpt>
      <trkpt lat="48.85807" lon="2.36238">
        <ele>44.599998474121</ele>
        <time>2015-08-31T19:36:35Z</time>
      </trkpt>
      <trkpt lat="48.8579" lon="2.36224">
        <ele>42.79999923706</ele>
        <time>2015-08-31T19:36:42Z</time>
      </trkpt>
      <trkpt lat="48.85771" lon="2.36212">
        <ele>39.599998474121</ele>
        <time>2015-08-31T19:36:49Z</time>
      </trkpt>
      <trkpt lat="48.85754" lon="2.36201">
        <ele>37.79999923706</ele>
        <time>2015-08-31T19:36:56Z</time>
      </trkpt>
      <trkpt lat="48.85738" lon="2.36186">
        <ele>35.400001525879</ele>
        <time>2015-08-31T19:37:04Z</time>
      </trkpt>
      <trkpt lat="48.85729" lon="2.36184">
        <ele>34.400001525879</ele>
        <time>2015-08-31T19:37:08Z</time>
      </trkpt>
      <trkpt lat="48.85732" lon="2.3617">
        <ele>32.599998474121</ele>
        <time>2015-08-31T19:37:14Z</time>
      </trkpt>
      <trkpt lat="48.85746" lon="2.3615">
        <ele>28.799999237061</ele>
        <time>2015-08-31T19:37:22Z</time>
      </trkpt>
      <trkpt lat="48.85759" lon="2.3613">
        <ele>23.60000038147</ele>
        <time>2015-08-31T19:37:31Z</time>
      </trkpt>
      <trkpt lat="48.85765" lon="2.36102">
        <ele>18.799999237061</ele>
        <time>2015-08-31T19:37:44Z</time>
      </trkpt>
      <trkpt lat="48.85769" lon="2.36076">
        <ele>19</ele>
        <time>2015-08-31T19:37:50Z</time>
      </trkpt>
      <trkpt lat="48.85784" lon="2.36053">
        <ele>19.39999961853</ele>
        <time>2015-08-31T19:37:57Z</time>
      </trkpt>
      <trkpt lat="48.85798" lon="2.36031">
        <ele>25.799999237061</ele>
        <time>2015-08-31T19:38:02Z</time>
      </trkpt>
      <trkpt lat="48.85812" lon="2.36011">
        <ele>28.39999961853</ele>
        <time>2015-08-31T19:38:08Z</time>
      </trkpt>
      <trkpt lat="48.85825" lon="2.3599">
        <ele>27.799999237061</ele>
        <time>2015-08-31T19:38:14Z</time>
      </trkpt>
      <trkpt lat="48.85832" lon="2.35959">
        <ele>27</ele>
        <time>2015-08-31T19:38:20Z</time>
      </trkpt>
      <trkpt lat="48.85847" lon="2.35938">
        <ele>25.799999237061</ele>
        <time>2015-08-31T19:38:26Z</time>
      </trkpt>
      <trkpt lat="48.85861" lon="2.35919">
        <ele>25</ele>
        <time>2015-08-31T19:38:31Z</time>
      </trkpt>
      <trkpt lat="48.85869" lon="2.35893">
        <ele>24.200000762939</ele>
        <time>2015-08-31T19:38:37Z</time>
      </trkpt>
      <trkpt lat="48.85862" lon="2.35872">
        <ele>24.200000762939</ele>
        <time>2015-08-31T19:38:42Z</time>
      </trkpt>
      <trkpt lat="48.85845" lon="2.35853">
        <ele>26</ele>
        <time>2015-08-31T19:38:48Z</time>
      </trkpt>
      <trkpt lat="48.85834" lon="2.3584">
        <ele>25.60000038147</ele>
        <time>2015-08-31T19:38:54Z</time>
      </trkpt>
      <trkpt lat="48.85845" lon="2.35817">
        <ele>26</ele>
        <time>2015-08-31T19:39:00Z</time>
      </trkpt>
      <trkpt lat="48.85857" lon="2.35794">
        <ele>26</ele>
        <time>2015-08-31T19:39:07Z</time>
      </trkpt>
      <trkpt lat="48.85867" lon="2.35767">
        <ele>24.60000038147</ele>
        <time>2015-08-31T19:39:14Z</time>
      </trkpt>
      <trkpt lat="48.85882" lon="2.35745">
        <ele>23.60000038147</ele>
        <time>2015-08-31T19:39:21Z</time>
      </trkpt>
      <trkpt lat="48.85896" lon="2.35722">
        <ele>22.60000038147</ele>
        <time>2015-08-31T19:39:29Z</time>
      </trkpt>
      <trkpt lat="48.85909" lon="2.35701">
        <ele>21.39999961853</ele>
        <time>2015-08-31T19:39:36Z</time>
      </trkpt>
      <trkpt lat="48.85922" lon="2.35682">
        <ele>23.200000762939</ele>
        <time>2015-08-31T19:39:41Z</time>
      </trkpt>
      <trkpt lat="48.85931" lon="2.35655">
        <ele>23.60000038147</ele>
        <time>2015-08-31T19:39:47Z</time>
      </trkpt>
      <trkpt lat="48.85933" lon="2.35647">
        <ele>24.60000038147</ele>
        <time>2015-08-31T19:39:50Z</time>
      </trkpt>
      <trkpt lat="48.85933" lon="2.3564">
        <ele>25.60000038147</ele>
        <time>2015-08-31T19:39:55Z</time>
      </trkpt>
      <trkpt lat="48.85935" lon="2.35622">
        <ele>33.79999923706</ele>
        <time>2015-08-31T19:40:12Z</time>
      </trkpt>
      <trkpt lat="48.85948" lon="2.35623">
        <ele>36</ele>
        <time>2015-08-31T19:40:19Z</time>
      </trkpt>
      <trkpt lat="48.8595" lon="2.35622">
        <ele>36.599998474121</ele>
        <time>2015-08-31T19:40:21Z</time>
      </trkpt>
      <trkpt lat="48.85935" lon="2.35607">
        <ele>38.400001525879</ele>
        <time>2015-08-31T19:40:36Z</time>
      </trkpt>
      <trkpt lat="48.85917" lon="2.35592">
        <ele>41.599998474121</ele>
        <time>2015-08-31T19:40:45Z</time>
      </trkpt>
      <trkpt lat="48.859" lon="2.35579">
        <ele>45.400001525879</ele>
        <time>2015-08-31T19:40:54Z</time>
      </trkpt>
      <trkpt lat="48.85885" lon="2.35566">
        <ele>49.79999923706</ele>
        <time>2015-08-31T19:41:03Z</time>
      </trkpt>
      <trkpt lat="48.85881" lon="2.35565">
        <ele>51.400001525879</ele>
        <time>2015-08-31T19:41:07Z</time>
      </trkpt>
      <trkpt lat="48.85885" lon="2.35563">
        <ele>51</ele>
        <time>2015-08-31T19:41:14Z</time>
      </trkpt>
      <trkpt lat="48.85871" lon="2.35546">
        <ele>49.599998474121</ele>
        <time>2015-08-31T19:41:35Z</time>
      </trkpt>
      <trkpt lat="48.85856" lon="2.3553">
        <ele>50.400001525879</ele>
        <time>2015-08-31T19:41:44Z</time>
      </trkpt>
      <trkpt lat="48.85857" lon="2.35526">
        <ele>50.599998474121</ele>
        <time>2015-08-31T19:41:45Z</time>
      </trkpt>
      <trkpt lat="48.85864" lon="2.35509">
        <ele>51.400001525879</ele>
        <time>2015-08-31T19:41:50Z</time>
      </trkpt>
      <trkpt lat="48.85871" lon="2.35484">
        <ele>51.79999923706</ele>
        <time>2015-08-31T19:41:57Z</time>
      </trkpt>
      <trkpt lat="48.8588" lon="2.35458">
        <ele>50.79999923706</ele>
        <time>2015-08-31T19:42:05Z</time>
      </trkpt>
      <trkpt lat="48.8589" lon="2.35432">
        <ele>49.599998474121</ele>
        <time>2015-08-31T19:42:12Z</time>
      </trkpt>
      <trkpt lat="48.85899" lon="2.35407">
        <ele>48.79999923706</ele>
        <time>2015-08-31T19:42:18Z</time>
      </trkpt>
      <trkpt lat="48.85907" lon="2.35383">
        <ele>48.79999923706</ele>
        <time>2015-08-31T19:42:24Z</time>
      </trkpt>
      <trkpt lat="48.85922" lon="2.35366">
        <ele>48.400001525879</ele>
        <time>2015-08-31T19:42:33Z</time>
      </trkpt>
      <trkpt lat="48.85932" lon="2.35338">
        <ele>49.400001525879</ele>
        <time>2015-08-31T19:42:41Z</time>
      </trkpt>
      <trkpt lat="48.85938" lon="2.35309">
        <ele>48.599998474121</ele>
        <time>2015-08-31T19:42:49Z</time>
      </trkpt>
      <trkpt lat="48.85941" lon="2.35302">
        <ele>49</ele>
        <time>2015-08-31T19:42:55Z</time>
      </trkpt>
      <trkpt lat="48.85957" lon="2.35315">
        <ele>47.79999923706</ele>
        <time>2015-08-31T19:43:06Z</time>
      </trkpt>
      <trkpt lat="48.85948" lon="2.35332">
        <ele>49.20000076294</ele>
        <time>2015-08-31T19:43:10Z</time>
      </trkpt>
      <trkpt lat="48.85963" lon="2.35291">
        <ele>55.20000076294</ele>
        <time>2015-08-31T19:43:20Z</time>
      </trkpt>
      <trkpt lat="48.85984" lon="2.35269">
        <ele>59.599998474121</ele>
        <time>2015-08-31T19:43:26Z</time>
      </trkpt>
      <trkpt lat="48.85999" lon="2.35242">
        <ele>71.599998474121</ele>
        <time>2015-08-31T19:43:53Z</time>
      </trkpt>
      <trkpt lat="48.86003" lon="2.35225">
        <ele>86.199996948242</ele>
        <time>2015-08-31T19:44:29Z</time>
      </trkpt>
      <trkpt lat="48.85999" lon="2.35217">
        <ele>84.800003051758</ele>
        <time>2015-08-31T19:44:34Z</time>
      </trkpt>
      <trkpt lat="48.85996" lon="2.35214">
        <ele>83.599998474121</ele>
        <time>2015-08-31T19:44:37Z</time>
      </trkpt>
      <trkpt lat="48.85974" lon="2.35239">
        <ele>73.599998474121</ele>
        <time>2015-08-31T19:44:54Z</time>
      </trkpt>
      <trkpt lat="48.8597" lon="2.35232">
        <ele>70.400001525879</ele>
        <time>2015-08-31T19:45:00Z</time>
      </trkpt>
      <trkpt lat="48.85971" lon="2.35204">
        <ele>66.800003051758</ele>
        <time>2015-08-31T19:45:09Z</time>
      </trkpt>
      <trkpt lat="48.85978" lon="2.35173">
        <ele>65.599998474121</ele>
        <time>2015-08-31T19:45:17Z</time>
      </trkpt>
      <trkpt lat="48.8599" lon="2.35152">
        <ele>64.400001525879</ele>
        <time>2015-08-31T19:45:24Z</time>
      </trkpt>
      <trkpt lat="48.85999" lon="2.35147">
        <ele>63.20000076294</ele>
        <time>2015-08-31T19:45:28Z</time>
      </trkpt>
      <trkpt lat="48.86011" lon="2.35137">
        <ele>63</ele>
        <time>2015-08-31T19:45:34Z</time>
      </trkpt>
      <trkpt lat="48.86024" lon="2.3512">
        <ele>62.400001525879</ele>
        <time>2015-08-31T19:45:42Z</time>
      </trkpt>
      <trkpt lat="48.8602" lon="2.35112">
        <ele>60.79999923706</ele>
        <time>2015-08-31T19:45:44Z</time>
      </trkpt>
      <trkpt lat="48.8602" lon="2.35088">
        <ele>73.800003051758</ele>
        <time>2015-08-31T19:46:47Z</time>
      </trkpt>
      <trkpt lat="48.86018" lon="2.35089">
        <ele>69</ele>
        <time>2015-08-31T19:46:52Z</time>
      </trkpt>
      <trkpt lat="48.86026" lon="2.35079">
        <ele>62.79999923706</ele>
        <time>2015-08-31T19:48:17Z</time>
      </trkpt>
      <trkpt lat="48.86033" lon="2.35053">
        <ele>62.79999923706</ele>
        <time>2015-08-31T19:48:27Z</time>
      </trkpt>
      <trkpt lat="48.86037" lon="2.35026">
        <ele>61.400001525879</ele>
        <time>2015-08-31T19:48:39Z</time>
      </trkpt>
      <trkpt lat="48.86043" lon="2.35013">
        <ele>60.20000076294</ele>
        <time>2015-08-31T19:48:47Z</time>
      </trkpt>
      <trkpt lat="48.86054" lon="2.34988">
        <ele>58.20000076294</ele>
        <time>2015-08-31T19:48:58Z</time>
      </trkpt>
      <trkpt lat="48.86054" lon="2.34958">
        <ele>57.400001525879</ele>
        <time>2015-08-31T19:49:07Z</time>
      </trkpt>
      <trkpt lat="48.86058" lon="2.34931">
        <ele>56.400001525879</ele>
        <time>2015-08-31T19:49:17Z</time>
      </trkpt>
      <trkpt lat="48.86063" lon="2.34924">
        <ele>56</ele>
        <time>2015-08-31T19:49:22Z</time>
      </trkpt>
      <trkpt lat="48.86049" lon="2.34908">
        <ele>54.599998474121</ele>
        <time>2015-08-31T19:49:45Z</time>
      </trkpt>
      <trkpt lat="48.86029" lon="2.3491">
        <ele>53.400001525879</ele>
        <time>2015-08-31T19:49:58Z</time>
      </trkpt>
      <trkpt lat="48.86016" lon="2.34907">
        <ele>53.79999923706</ele>
        <time>2015-08-31T19:50:05Z</time>
      </trkpt>
      <trkpt lat="48.86007" lon="2.34897">
        <ele>55.20000076294</ele>
        <time>2015-08-31T19:50:13Z</time>
      </trkpt>
      <trkpt lat="48.85994" lon="2.34891">
        <ele>56.79999923706</ele>
        <time>2015-08-31T19:50:20Z</time>
      </trkpt>
      <trkpt lat="48.85977" lon="2.34879">
        <ele>58.20000076294</ele>
        <time>2015-08-31T19:50:30Z</time>
      </trkpt>
      <trkpt lat="48.85962" lon="2.34864">
        <ele>60.20000076294</ele>
        <time>2015-08-31T19:50:39Z</time>
      </trkpt>
      <trkpt lat="48.85941" lon="2.34863">
        <ele>62.400001525879</ele>
        <time>2015-08-31T19:50:47Z</time>
      </trkpt>
      <trkpt lat="48.85921" lon="2.3486">
        <ele>69.800003051758</ele>
        <time>2015-08-31T19:50:55Z</time>
      </trkpt>
      <trkpt lat="48.85903" lon="2.34858">
        <ele>74</ele>
        <time>2015-08-31T19:51:02Z</time>
      </trkpt>
      <trkpt lat="48.85889" lon="2.34849">
        <ele>72.199996948242</ele>
        <time>2015-08-31T19:51:08Z</time>
      </trkpt>
      <trkpt lat="48.85878" lon="2.34831">
        <ele>68.800003051758</ele>
        <time>2015-08-31T19:51:23Z</time>
      </trkpt>
      <trkpt lat="48.85865" lon="2.34835">
        <ele>67.400001525879</ele>
        <time>2015-08-31T19:51:38Z</time>
      </trkpt>
      <trkpt lat="48.8586" lon="2.34832">
        <ele>67.599998474121</ele>
        <time>2015-08-31T19:51:44Z</time>
      </trkpt>
      <trkpt lat="48.85847" lon="2.34823">
        <ele>60.79999923706</ele>
        <time>2015-08-31T19:52:37Z</time>
      </trkpt>
      <trkpt lat="48.8583" lon="2.34809">
        <ele>57.400001525879</ele>
        <time>2015-08-31T19:52:48Z</time>
      </trkpt>
      <trkpt lat="48.85813" lon="2.34793">
        <ele>53.400001525879</ele>
        <time>2015-08-31T19:52:56Z</time>
      </trkpt>
      <trkpt lat="48.85796" lon="2.34776">
        <ele>47.79999923706</ele>
        <time>2015-08-31T19:53:03Z</time>
      </trkpt>
      <trkpt lat="48.85795" lon="2.34769">
        <ele>46.599998474121</ele>
        <time>2015-08-31T19:53:05Z</time>
      </trkpt>
      <trkpt lat="48.85801" lon="2.34741">
        <ele>41</ele>
        <time>2015-08-31T19:53:13Z</time>
      </trkpt>
      <trkpt lat="48.85798" lon="2.34714">
        <ele>41.599998474121</ele>
        <time>2015-08-31T19:53:19Z</time>
      </trkpt>
      <trkpt lat="48.85803" lon="2.34687">
        <ele>43.400001525879</ele>
        <time>2015-08-31T19:53:25Z</time>
      </trkpt>
      <trkpt lat="48.8581" lon="2.34657">
        <ele>45</ele>
        <time>2015-08-31T19:53:31Z</time>
      </trkpt>
      <trkpt lat="48.85817" lon="2.34631">
        <ele>44.79999923706</ele>
        <time>2015-08-31T19:53:36Z</time>
      </trkpt>
      <trkpt lat="48.85827" lon="2.34604">
        <ele>44</ele>
        <time>2015-08-31T19:53:41Z</time>
      </trkpt>
      <trkpt lat="48.85842" lon="2.34597">
        <ele>45.599998474121</ele>
        <time>2015-08-31T19:53:47Z</time>
      </trkpt>
      <trkpt lat="48.85861" lon="2.34605">
        <ele>44</ele>
        <time>2015-08-31T19:53:54Z</time>
      </trkpt>
      <trkpt lat="48.85866" lon="2.34603">
        <ele>43.79999923706</ele>
        <time>2015-08-31T19:53:56Z</time>
      </trkpt>
      <trkpt lat="48.85869" lon="2.346">
        <ele>44.20000076294</ele>
        <time>2015-08-31T19:53:58Z</time>
      </trkpt>
      <trkpt lat="48.85879" lon="2.34575">
        <ele>44.79999923706</ele>
        <time>2015-08-31T19:54:06Z</time>
      </trkpt>
      <trkpt lat="48.85886" lon="2.3455">
        <ele>45.599998474121</ele>
        <time>2015-08-31T19:54:14Z</time>
      </trkpt>
      <trkpt lat="48.85894" lon="2.34525">
        <ele>45.599998474121</ele>
        <time>2015-08-31T19:54:21Z</time>
      </trkpt>
      <trkpt lat="48.85902" lon="2.34508">
        <ele>45.599998474121</ele>
        <time>2015-08-31T19:54:26Z</time>
      </trkpt>
      <trkpt lat="48.85888" lon="2.34491">
        <ele>46.20000076294</ele>
        <time>2015-08-31T19:54:32Z</time>
      </trkpt>
      <trkpt lat="48.85884" lon="2.3449">
        <ele>46.400001525879</ele>
        <time>2015-08-31T19:54:33Z</time>
      </trkpt>
      <trkpt lat="48.85867" lon="2.3448">
        <ele>46.599998474121</ele>
        <time>2015-08-31T19:54:38Z</time>
      </trkpt>
      <trkpt lat="48.85849" lon="2.34468">
        <ele>46.79999923706</ele>
        <time>2015-08-31T19:54:44Z</time>
      </trkpt>
      <trkpt lat="48.85846" lon="2.34463">
        <ele>46.79999923706</ele>
        <time>2015-08-31T19:54:46Z</time>
      </trkpt>
      <trkpt lat="48.85852" lon="2.34449">
        <ele>47.400001525879</ele>
        <time>2015-08-31T19:54:50Z</time>
      </trkpt>
      <trkpt lat="48.85861" lon="2.34423">
        <ele>47.400001525879</ele>
        <time>2015-08-31T19:54:56Z</time>
      </trkpt>
      <trkpt lat="48.85866" lon="2.34392">
        <ele>47.79999923706</ele>
        <time>2015-08-31T19:55:02Z</time>
      </trkpt>
      <trkpt lat="48.85861" lon="2.34377">
        <ele>48.20000076294</ele>
        <time>2015-08-31T19:55:06Z</time>
      </trkpt>
      <trkpt lat="48.85845" lon="2.34362">
        <ele>47.400001525879</ele>
        <time>2015-08-31T19:55:13Z</time>
      </trkpt>
      <trkpt lat="48.85837" lon="2.34348">
        <ele>48.20000076294</ele>
        <time>2015-08-31T19:55:21Z</time>
      </trkpt>
      <trkpt lat="48.85843" lon="2.34325">
        <ele>47.20000076294</ele>
        <time>2015-08-31T19:55:28Z</time>
      </trkpt>
      <trkpt lat="48.85846" lon="2.34298">
        <ele>44.599998474121</ele>
        <time>2015-08-31T19:55:36Z</time>
      </trkpt>
      <trkpt lat="48.85848" lon="2.34293">
        <ele>43.79999923706</ele>
        <time>2015-08-31T19:55:38Z</time>
      </trkpt>
      <trkpt lat="48.85853" lon="2.3429">
        <ele>41.79999923706</ele>
        <time>2015-08-31T19:55:42Z</time>
      </trkpt>
      <trkpt lat="48.85854" lon="2.34288">
        <ele>41.20000076294</ele>
        <time>2015-08-31T19:55:43Z</time>
      </trkpt>
      <trkpt lat="48.85854" lon="2.3426">
        <ele>38</ele>
        <time>2015-08-31T19:55:52Z</time>
      </trkpt>
      <trkpt lat="48.85856" lon="2.34247">
        <ele>37.599998474121</ele>
        <time>2015-08-31T19:55:55Z</time>
      </trkpt>
      <trkpt lat="48.85863" lon="2.34217">
        <ele>36.79999923706</ele>
        <time>2015-08-31T19:56:01Z</time>
      </trkpt>
      <trkpt lat="48.8587" lon="2.34192">
        <ele>36.20000076294</ele>
        <time>2015-08-31T19:56:06Z</time>
      </trkpt>
      <trkpt lat="48.85877" lon="2.34172">
        <ele>34.599998474121</ele>
        <time>2015-08-31T19:56:11Z</time>
      </trkpt>
      <trkpt lat="48.85888" lon="2.34175">
        <ele>33.20000076294</ele>
        <time>2015-08-31T19:56:15Z</time>
      </trkpt>
      <trkpt lat="48.85907" lon="2.34182">
        <ele>30.799999237061</ele>
        <time>2015-08-31T19:56:21Z</time>
      </trkpt>
      <trkpt lat="48.85926" lon="2.34172">
        <ele>29.799999237061</ele>
        <time>2015-08-31T19:56:27Z</time>
      </trkpt>
      <trkpt lat="48.85939" lon="2.34148">
        <ele>30.200000762939</ele>
        <time>2015-08-31T19:56:33Z</time>
      </trkpt>
      <trkpt lat="48.85944" lon="2.34119">
        <ele>30.799999237061</ele>
        <time>2015-08-31T19:56:39Z</time>
      </trkpt>
      <trkpt lat="48.8595" lon="2.3409">
        <ele>30.60000038147</ele>
        <time>2015-08-31T19:56:45Z</time>
      </trkpt>
      <trkpt lat="48.85961" lon="2.3407">
        <ele>31.200000762939</ele>
        <time>2015-08-31T19:56:51Z</time>
      </trkpt>
      <trkpt lat="48.85949" lon="2.34034">
        <ele>31.799999237061</ele>
        <time>2015-08-31T19:56:58Z</time>
      </trkpt>
      <trkpt lat="48.8595" lon="2.34029">
        <ele>32.79999923706</ele>
        <time>2015-08-31T19:57:00Z</time>
      </trkpt>
      <trkpt lat="48.85944" lon="2.34012">
        <ele>37.20000076294</ele>
        <time>2015-08-31T19:57:49Z</time>
      </trkpt>
      <trkpt lat="48.85925" lon="2.34008">
        <ele>35.400001525879</ele>
        <time>2015-08-31T19:57:56Z</time>
      </trkpt>
      <trkpt lat="48.85917" lon="2.34009">
        <ele>34.599998474121</ele>
        <time>2015-08-31T19:58:02Z</time>
      </trkpt>
      <trkpt lat="48.85922" lon="2.33988">
        <ele>34.79999923706</ele>
        <time>2015-08-31T19:58:16Z</time>
      </trkpt>
      <trkpt lat="48.85923" lon="2.33979">
        <ele>37</ele>
        <time>2015-08-31T19:58:21Z</time>
      </trkpt>
      <trkpt lat="48.85918" lon="2.33952">
        <ele>38.79999923706</ele>
        <time>2015-08-31T19:58:35Z</time>
      </trkpt>
      <trkpt lat="48.85922" lon="2.33922">
        <ele>40</ele>
        <time>2015-08-31T19:58:42Z</time>
      </trkpt>
      <trkpt lat="48.85925" lon="2.33895">
        <ele>42.20000076294</ele>
        <time>2015-08-31T19:58:48Z</time>
      </trkpt>
      <trkpt lat="48.85927" lon="2.33867">
        <ele>42.400001525879</ele>
        <time>2015-08-31T19:58:54Z</time>
      </trkpt>
      <trkpt lat="48.8593" lon="2.33838">
        <ele>39.400001525879</ele>
        <time>2015-08-31T19:59:01Z</time>
      </trkpt>
      <trkpt lat="48.85932" lon="2.33811">
        <ele>35.400001525879</ele>
        <time>2015-08-31T19:59:10Z</time>
      </trkpt>
      <trkpt lat="48.85933" lon="2.33797">
        <ele>34.599998474121</ele>
        <time>2015-08-31T19:59:17Z</time>
      </trkpt>
      <trkpt lat="48.85921" lon="2.33786">
        <ele>41</ele>
        <time>2015-08-31T19:59:52Z</time>
      </trkpt>
      <trkpt lat="48.85919" lon="2.33786">
        <ele>40.79999923706</ele>
        <time>2015-08-31T19:59:53Z</time>
      </trkpt>
      <trkpt lat="48.85916" lon="2.33787">
        <ele>40.79999923706</ele>
        <time>2015-08-31T19:59:57Z</time>
      </trkpt>
      <trkpt lat="48.85898" lon="2.3378">
        <ele>40.400001525879</ele>
        <time>2015-08-31T20:00:12Z</time>
      </trkpt>
      <trkpt lat="48.85879" lon="2.33771">
        <ele>40</ele>
        <time>2015-08-31T20:00:20Z</time>
      </trkpt>
      <trkpt lat="48.8586" lon="2.3376">
        <ele>38.400001525879</ele>
        <time>2015-08-31T20:00:28Z</time>
      </trkpt>
      <trkpt lat="48.85841" lon="2.33749">
        <ele>35.79999923706</ele>
        <time>2015-08-31T20:00:36Z</time>
      </trkpt>
      <trkpt lat="48.85824" lon="2.3374">
        <ele>35</ele>
        <time>2015-08-31T20:00:43Z</time>
      </trkpt>
      <trkpt lat="48.85805" lon="2.3373">
        <ele>35.599998474121</ele>
        <time>2015-08-31T20:00:51Z</time>
      </trkpt>
      <trkpt lat="48.85788" lon="2.33719">
        <ele>35.20000076294</ele>
        <time>2015-08-31T20:01:00Z</time>
      </trkpt>
      <trkpt lat="48.85785" lon="2.33716">
        <ele>34.79999923706</ele>
        <time>2015-08-31T20:01:03Z</time>
      </trkpt>
      <trkpt lat="48.8579" lon="2.3369">
        <ele>30.39999961853</ele>
        <time>2015-08-31T20:01:27Z</time>
      </trkpt>
      <trkpt lat="48.85791" lon="2.33677">
        <ele>30.799999237061</ele>
        <time>2015-08-31T20:01:36Z</time>
      </trkpt>
      <trkpt lat="48.85791" lon="2.33671">
        <ele>34.20000076294</ele>
        <time>2015-08-31T20:02:38Z</time>
      </trkpt>
      <trkpt lat="48.85795" lon="2.33643">
        <ele>34.400001525879</ele>
        <time>2015-08-31T20:02:51Z</time>
      </trkpt>
      <trkpt lat="48.85788" lon="2.33625">
        <ele>35</ele>
        <time>2015-08-31T20:02:58Z</time>
      </trkpt>
      <trkpt lat="48.85785" lon="2.33622">
        <ele>34.79999923706</ele>
        <time>2015-08-31T20:03:01Z</time>
      </trkpt>
      <trkpt lat="48.85768" lon="2.33613">
        <ele>34.599998474121</ele>
        <time>2015-08-31T20:03:13Z</time>
      </trkpt>
      <trkpt lat="48.85761" lon="2.33626">
        <ele>34.400001525879</ele>
        <time>2015-08-31T20:03:17Z</time>
      </trkpt>
      <trkpt lat="48.85747" lon="2.33646">
        <ele>34.20000076294</ele>
        <time>2015-08-31T20:03:23Z</time>
      </trkpt>
      <trkpt lat="48.8573" lon="2.33655">
        <ele>34.20000076294</ele>
        <time>2015-08-31T20:03:29Z</time>
      </trkpt>
      <trkpt lat="48.85728" lon="2.33658">
        <ele>34.20000076294</ele>
        <time>2015-08-31T20:03:30Z</time>
      </trkpt>
      <trkpt lat="48.8572" lon="2.33678">
        <ele>34.599998474121</ele>
        <time>2015-08-31T20:03:34Z</time>
      </trkpt>
      <trkpt lat="48.85711" lon="2.33706">
        <ele>36.20000076294</ele>
        <time>2015-08-31T20:03:40Z</time>
      </trkpt>
      <trkpt lat="48.85697" lon="2.33726">
        <ele>39</ele>
        <time>2015-08-31T20:03:49Z</time>
      </trkpt>
      <trkpt lat="48.85679" lon="2.33728">
        <ele>42</ele>
        <time>2015-08-31T20:03:56Z</time>
      </trkpt>
      <trkpt lat="48.85659" lon="2.33731">
        <ele>44.20000076294</ele>
        <time>2015-08-31T20:04:03Z</time>
      </trkpt>
      <trkpt lat="48.85638" lon="2.33738">
        <ele>45.79999923706</ele>
        <time>2015-08-31T20:04:08Z</time>
      </trkpt>
      <trkpt lat="48.85626" lon="2.3375">
        <ele>48.599998474121</ele>
        <time>2015-08-31T20:04:15Z</time>
      </trkpt>
      <trkpt lat="48.8562" lon="2.3376">
        <ele>50.79999923706</ele>
        <time>2015-08-31T20:04:36Z</time>
      </trkpt>
      <trkpt lat="48.8561" lon="2.33759">
        <ele>51.20000076294</ele>
        <time>2015-08-31T20:04:40Z</time>
      </trkpt>
      <trkpt lat="48.85591" lon="2.33763">
        <ele>51.79999923706</ele>
        <time>2015-08-31T20:04:48Z</time>
      </trkpt>
      <trkpt lat="48.85573" lon="2.3376">
        <ele>52</ele>
        <time>2015-08-31T20:04:57Z</time>
      </trkpt>
      <trkpt lat="48.85554" lon="2.33764">
        <ele>51.599998474121</ele>
        <time>2015-08-31T20:05:05Z</time>
      </trkpt>
      <trkpt lat="48.8554" lon="2.33772">
        <ele>52</ele>
        <time>2015-08-31T20:05:10Z</time>
      </trkpt>
      <trkpt lat="48.85536" lon="2.33773">
        <ele>52.20000076294</ele>
        <time>2015-08-31T20:05:13Z</time>
      </trkpt>
      <trkpt lat="48.85518" lon="2.33783">
        <ele>52</ele>
        <time>2015-08-31T20:05:23Z</time>
      </trkpt>
      <trkpt lat="48.85501" lon="2.3379">
        <ele>51</ele>
        <time>2015-08-31T20:05:29Z</time>
      </trkpt>
      <trkpt lat="48.85481" lon="2.33802">
        <ele>50.79999923706</ele>
        <time>2015-08-31T20:05:35Z</time>
      </trkpt>
      <trkpt lat="48.85463" lon="2.3381">
        <ele>50.599998474121</ele>
        <time>2015-08-31T20:05:40Z</time>
      </trkpt>
      <trkpt lat="48.85444" lon="2.33815">
        <ele>49.79999923706</ele>
        <time>2015-08-31T20:05:44Z</time>
      </trkpt>
      <trkpt lat="48.85423" lon="2.33824">
        <ele>48.599998474121</ele>
        <time>2015-08-31T20:05:49Z</time>
      </trkpt>
      <trkpt lat="48.85402" lon="2.33833">
        <ele>47.20000076294</ele>
        <time>2015-08-31T20:05:55Z</time>
      </trkpt>
      <trkpt lat="48.85385" lon="2.3383">
        <ele>46.79999923706</ele>
        <time>2015-08-31T20:06:01Z</time>
      </trkpt>
      <trkpt lat="48.85386" lon="2.33813">
        <ele>47.20000076294</ele>
        <time>2015-08-31T20:06:06Z</time>
      </trkpt>
      <trkpt lat="48.85391" lon="2.33785">
        <ele>47.599998474121</ele>
        <time>2015-08-31T20:06:13Z</time>
      </trkpt>
      <trkpt lat="48.85395" lon="2.33759">
        <ele>47</ele>
        <time>2015-08-31T20:06:19Z</time>
      </trkpt>
      <trkpt lat="48.85397" lon="2.33728">
        <ele>46.79999923706</ele>
        <time>2015-08-31T20:06:25Z</time>
      </trkpt>
      <trkpt lat="48.85389" lon="2.337">
        <ele>47</ele>
        <time>2015-08-31T20:06:30Z</time>
      </trkpt>
      <trkpt lat="48.85375" lon="2.33677">
        <ele>44.79999923706</ele>
        <time>2015-08-31T20:06:35Z</time>
      </trkpt>
      <trkpt lat="48.85362" lon="2.33658">
        <ele>42.79999923706</ele>
        <time>2015-08-31T20:06:42Z</time>
      </trkpt>
      <trkpt lat="48.85363" lon="2.33654">
        <ele>42.599998474121</ele>
        <time>2015-08-31T20:06:44Z</time>
      </trkpt>
      <trkpt lat="48.85379" lon="2.3363">
        <ele>42.400001525879</ele>
        <time>2015-08-31T20:06:50Z</time>
      </trkpt>
      <trkpt lat="48.85395" lon="2.33614">
        <ele>41.400001525879</ele>
        <time>2015-08-31T20:06:57Z</time>
      </trkpt>
      <trkpt lat="48.85417" lon="2.33617">
        <ele>40.79999923706</ele>
        <time>2015-08-31T20:07:02Z</time>
      </trkpt>
      <trkpt lat="48.85436" lon="2.33613">
        <ele>39.79999923706</ele>
        <time>2015-08-31T20:07:07Z</time>
      </trkpt>
      <trkpt lat="48.85447" lon="2.33593">
        <ele>38.400001525879</ele>
        <time>2015-08-31T20:07:13Z</time>
      </trkpt>
      <trkpt lat="48.85437" lon="2.33579">
        <ele>37.79999923706</ele>
        <time>2015-08-31T20:07:19Z</time>
      </trkpt>
      <trkpt lat="48.85421" lon="2.33561">
        <ele>38.20000076294</ele>
        <time>2015-08-31T20:07:26Z</time>
      </trkpt>
      <trkpt lat="48.85419" lon="2.3356">
        <ele>38</ele>
        <time>2015-08-31T20:07:28Z</time>
      </trkpt>
      <trkpt lat="48.85406" lon="2.33585">
        <ele>39.20000076294</ele>
        <time>2015-08-31T20:07:35Z</time>
      </trkpt>
      <trkpt lat="48.85396" lon="2.33582">
        <ele>39.400001525879</ele>
        <time>2015-08-31T20:07:38Z</time>
      </trkpt>
      <trkpt lat="48.85377" lon="2.3357">
        <ele>38.20000076294</ele>
        <time>2015-08-31T20:07:46Z</time>
      </trkpt>
      <trkpt lat="48.85359" lon="2.3356">
        <ele>38.79999923706</ele>
        <time>2015-08-31T20:07:51Z</time>
      </trkpt>
      <trkpt lat="48.8535" lon="2.33549">
        <ele>39.400001525879</ele>
        <time>2015-08-31T20:07:59Z</time>
      </trkpt>
      <trkpt lat="48.85337" lon="2.33558">
        <ele>49.79999923706</ele>
        <time>2015-08-31T20:08:21Z</time>
      </trkpt>
      <trkpt lat="48.85326" lon="2.33567">
        <ele>49</ele>
        <time>2015-08-31T20:08:28Z</time>
      </trkpt>
      <trkpt lat="48.85304" lon="2.3356">
        <ele>49</ele>
        <time>2015-08-31T20:08:59Z</time>
      </trkpt>
      <trkpt lat="48.85296" lon="2.33535">
        <ele>49.20000076294</ele>
        <time>2015-08-31T20:09:06Z</time>
      </trkpt>
      <trkpt lat="48.85287" lon="2.33508">
        <ele>49.79999923706</ele>
        <time>2015-08-31T20:09:12Z</time>
      </trkpt>
      <trkpt lat="48.85278" lon="2.33482">
        <ele>50.599998474121</ele>
        <time>2015-08-31T20:09:18Z</time>
      </trkpt>
      <trkpt lat="48.85268" lon="2.33458">
        <ele>52.400001525879</ele>
        <time>2015-08-31T20:09:24Z</time>
      </trkpt>
      <trkpt lat="48.85255" lon="2.33444">
        <ele>57.599998474121</ele>
        <time>2015-08-31T20:09:40Z</time>
      </trkpt>
      <trkpt lat="48.85235" lon="2.3345">
        <ele>63.400001525879</ele>
        <time>2015-08-31T20:09:50Z</time>
      </trkpt>
      <trkpt lat="48.85229" lon="2.33436">
        <ele>64.800003051758</ele>
        <time>2015-08-31T20:09:54Z</time>
      </trkpt>
      <trkpt lat="48.85216" lon="2.33412">
        <ele>66.599998474121</ele>
        <time>2015-08-31T20:09:59Z</time>
      </trkpt>
      <trkpt lat="48.85203" lon="2.33385">
        <ele>69</ele>
        <time>2015-08-31T20:10:05Z</time>
      </trkpt>
      <trkpt lat="48.85183" lon="2.33371">
        <ele>70</ele>
        <time>2015-08-31T20:10:12Z</time>
      </trkpt>
      <trkpt lat="48.85164" lon="2.33376">
        <ele>68</ele>
        <time>2015-08-31T20:10:14Z</time>
      </trkpt>
      <trkpt lat="48.85149" lon="2.33383">
        <ele>66.599998474121</ele>
        <time>2015-08-31T20:10:16Z</time>
      </trkpt>
      <trkpt lat="48.85129" lon="2.33379">
        <ele>64.800003051758</ele>
        <time>2015-08-31T20:10:21Z</time>
      </trkpt>
      <trkpt lat="48.85115" lon="2.33373">
        <ele>61.599998474121</ele>
        <time>2015-08-31T20:10:25Z</time>
      </trkpt>
      <trkpt lat="48.85114" lon="2.3337">
        <ele>61.20000076294</ele>
        <time>2015-08-31T20:10:26Z</time>
      </trkpt>
      <trkpt lat="48.8511" lon="2.33366">
        <ele>60.599998474121</ele>
        <time>2015-08-31T20:10:29Z</time>
      </trkpt>
      <trkpt lat="48.85103" lon="2.33361">
        <ele>59.79999923706</ele>
        <time>2015-08-31T20:10:36Z</time>
      </trkpt>
      <trkpt lat="48.85102" lon="2.33357">
        <ele>59.20000076294</ele>
        <time>2015-08-31T20:10:39Z</time>
      </trkpt>
      <trkpt lat="48.85096" lon="2.33355">
        <ele>59.20000076294</ele>
        <time>2015-08-31T20:10:47Z</time>
      </trkpt>
      <trkpt lat="48.85078" lon="2.33365">
        <ele>54.20000076294</ele>
        <time>2015-08-31T20:11:03Z</time>
      </trkpt>
      <trkpt lat="48.85072" lon="2.33365">
        <ele>52.79999923706</ele>
        <time>2015-08-31T20:11:07Z</time>
      </trkpt>
      <trkpt lat="48.85059" lon="2.33387">
        <ele>48.599998474121</ele>
        <time>2015-08-31T20:11:16Z</time>
      </trkpt>
      <trkpt lat="48.85057" lon="2.33388">
        <ele>48.400001525879</ele>
        <time>2015-08-31T20:11:17Z</time>
      </trkpt>
      <trkpt lat="48.85039" lon="2.33394">
        <ele>46.599998474121</ele>
        <time>2015-08-31T20:11:24Z</time>
      </trkpt>
      <trkpt lat="48.85024" lon="2.33396">
        <ele>45</ele>
        <time>2015-08-31T20:11:33Z</time>
      </trkpt>
      <trkpt lat="48.85016" lon="2.33404">
        <ele>45.79999923706</ele>
        <time>2015-08-31T20:11:50Z</time>
      </trkpt>
      <trkpt lat="48.85012" lon="2.33408">
        <ele>45.400001525879</ele>
        <time>2015-08-31T20:11:54Z</time>
      </trkpt>
      <trkpt lat="48.84997" lon="2.33404">
        <ele>48.599998474121</ele>
        <time>2015-08-31T20:12:16Z</time>
      </trkpt>
      <trkpt lat="48.84979" lon="2.33403">
        <ele>48</ele>
        <time>2015-08-31T20:12:24Z</time>
      </trkpt>
      <trkpt lat="48.84961" lon="2.33403">
        <ele>47.79999923706</ele>
        <time>2015-08-31T20:12:32Z</time>
      </trkpt>
      <trkpt lat="48.84939" lon="2.33408">
        <ele>46.79999923706</ele>
        <time>2015-08-31T20:12:38Z</time>
      </trkpt>
      <trkpt lat="48.8492" lon="2.33412">
        <ele>46.400001525879</ele>
        <time>2015-08-31T20:12:43Z</time>
      </trkpt>
      <trkpt lat="48.84909" lon="2.33414">
        <ele>45.79999923706</ele>
        <time>2015-08-31T20:12:47Z</time>
      </trkpt>
      <trkpt lat="48.84921" lon="2.33406">
        <ele>41.79999923706</ele>
        <time>2015-08-31T20:12:58Z</time>
      </trkpt>
      <trkpt lat="48.84915" lon="2.33407">
        <ele>42</ele>
        <time>2015-08-31T20:13:17Z</time>
      </trkpt>
      <trkpt lat="48.84909" lon="2.33412">
        <ele>41.79999923706</ele>
        <time>2015-08-31T20:13:26Z</time>
      </trkpt>
      <trkpt lat="48.84904" lon="2.33415">
        <ele>42.599998474121</ele>
        <time>2015-08-31T20:13:37Z</time>
      </trkpt>
      <trkpt lat="48.84896" lon="2.33403">
        <ele>46</ele>
        <time>2015-08-31T20:14:00Z</time>
      </trkpt>
      <trkpt lat="48.84893" lon="2.33388">
        <ele>47</ele>
        <time>2015-08-31T20:14:04Z</time>
      </trkpt>
      <trkpt lat="48.84886" lon="2.33361">
        <ele>50.20000076294</ele>
        <time>2015-08-31T20:14:11Z</time>
      </trkpt>
      <trkpt lat="48.84878" lon="2.33334">
        <ele>54</ele>
        <time>2015-08-31T20:14:18Z</time>
      </trkpt>
      <trkpt lat="48.84873" lon="2.33305">
        <ele>55.79999923706</ele>
        <time>2015-08-31T20:14:24Z</time>
      </trkpt>
      <trkpt lat="48.84865" lon="2.33279">
        <ele>58.400001525879</ele>
        <time>2015-08-31T20:14:30Z</time>
      </trkpt>
      <trkpt lat="48.84848" lon="2.33265">
        <ele>60.400001525879</ele>
        <time>2015-08-31T20:14:35Z</time>
      </trkpt>
      <trkpt lat="48.8483" lon="2.33262">
        <ele>62.400001525879</ele>
        <time>2015-08-31T20:14:40Z</time>
      </trkpt>
      <trkpt lat="48.84811" lon="2.33262">
        <ele>64.199996948242</ele>
        <time>2015-08-31T20:14:45Z</time>
      </trkpt>
      <trkpt lat="48.84792" lon="2.33261">
        <ele>67.199996948242</ele>
        <time>2015-08-31T20:14:51Z</time>
      </trkpt>
      <trkpt lat="48.84771" lon="2.33259">
        <ele>68.400001525879</ele>
        <time>2015-08-31T20:14:56Z</time>
      </trkpt>
      <trkpt lat="48.8475" lon="2.33256">
        <ele>69.400001525879</ele>
        <time>2015-08-31T20:15:02Z</time>
      </trkpt>
      <trkpt lat="48.84731" lon="2.33255">
        <ele>68.599998474121</ele>
        <time>2015-08-31T20:15:07Z</time>
      </trkpt>
      <trkpt lat="48.84711" lon="2.33252">
        <ele>69.599998474121</ele>
        <time>2015-08-31T20:15:13Z</time>
      </trkpt>
      <trkpt lat="48.84706" lon="2.33248">
        <ele>69.800003051758</ele>
        <time>2015-08-31T20:15:15Z</time>
      </trkpt>
      <trkpt lat="48.84703" lon="2.33227">
        <ele>66</ele>
        <time>2015-08-31T20:15:20Z</time>
      </trkpt>
      <trkpt lat="48.84703" lon="2.33199">
        <ele>61.599998474121</ele>
        <time>2015-08-31T20:15:25Z</time>
      </trkpt>
      <trkpt lat="48.84704" lon="2.33167">
        <ele>58.79999923706</ele>
        <time>2015-08-31T20:15:30Z</time>
      </trkpt>
      <trkpt lat="48.84709" lon="2.33139">
        <ele>55</ele>
        <time>2015-08-31T20:15:35Z</time>
      </trkpt>
      <trkpt lat="48.84715" lon="2.33111">
        <ele>52</ele>
        <time>2015-08-31T20:15:41Z</time>
      </trkpt>
      <trkpt lat="48.84733" lon="2.33105">
        <ele>48.20000076294</ele>
        <time>2015-08-31T20:15:48Z</time>
      </trkpt>
      <trkpt lat="48.84753" lon="2.33111">
        <ele>46.599998474121</ele>
        <time>2015-08-31T20:15:55Z</time>
      </trkpt>
      <trkpt lat="48.84772" lon="2.33111">
        <ele>46.599998474121</ele>
        <time>2015-08-31T20:16:00Z</time>
      </trkpt>
      <trkpt lat="48.84792" lon="2.3311">
        <ele>44.599998474121</ele>
        <time>2015-08-31T20:16:06Z</time>
      </trkpt>
      <trkpt lat="48.84813" lon="2.33113">
        <ele>52.79999923706</ele>
        <time>2015-08-31T20:16:11Z</time>
      </trkpt>
      <trkpt lat="48.84816" lon="2.33103">
        <ele>54.20000076294</ele>
        <time>2015-08-31T20:16:14Z</time>
      </trkpt>
      <trkpt lat="48.84814" lon="2.33082">
        <ele>55.400001525879</ele>
        <time>2015-08-31T20:16:18Z</time>
      </trkpt>
      <trkpt lat="48.84807" lon="2.33052">
        <ele>56</ele>
        <time>2015-08-31T20:16:24Z</time>
      </trkpt>
      <trkpt lat="48.84796" lon="2.33031">
        <ele>54</ele>
        <time>2015-08-31T20:16:29Z</time>
      </trkpt>
      <trkpt lat="48.84784" lon="2.33009">
        <ele>53.20000076294</ele>
        <time>2015-08-31T20:16:34Z</time>
      </trkpt>
      <trkpt lat="48.84777" lon="2.3298">
        <ele>53.79999923706</ele>
        <time>2015-08-31T20:16:40Z</time>
      </trkpt>
      <trkpt lat="48.84771" lon="2.32949">
        <ele>53.599998474121</ele>
        <time>2015-08-31T20:16:47Z</time>
      </trkpt>
      <trkpt lat="48.84763" lon="2.32924">
        <ele>53.400001525879</ele>
        <time>2015-08-31T20:16:53Z</time>
      </trkpt>
      <trkpt lat="48.84752" lon="2.32897">
        <ele>53.400001525879</ele>
        <time>2015-08-31T20:16:59Z</time>
      </trkpt>
      <trkpt lat="48.84742" lon="2.32869">
        <ele>51.400001525879</ele>
        <time>2015-08-31T20:17:05Z</time>
      </trkpt>
      <trkpt lat="48.84737" lon="2.32842">
        <ele>53.79999923706</ele>
        <time>2015-08-31T20:17:14Z</time>
      </trkpt>
      <trkpt lat="48.84739" lon="2.32838">
        <ele>52.400001525879</ele>
        <time>2015-08-31T20:17:15Z</time>
      </trkpt>
      <trkpt lat="48.84733" lon="2.32808">
        <ele>54.400001525879</ele>
        <time>2015-08-31T20:17:23Z</time>
      </trkpt>
      <trkpt lat="48.84721" lon="2.32782">
        <ele>56.400001525879</ele>
        <time>2015-08-31T20:17:30Z</time>
      </trkpt>
      <trkpt lat="48.84713" lon="2.32757">
        <ele>54.599998474121</ele>
        <time>2015-08-31T20:17:35Z</time>
      </trkpt>
      <trkpt lat="48.84721" lon="2.32732">
        <ele>50</ele>
        <time>2015-08-31T20:17:42Z</time>
      </trkpt>
      <trkpt lat="48.84713" lon="2.32707">
        <ele>46.400001525879</ele>
        <time>2015-08-31T20:17:49Z</time>
      </trkpt>
      <trkpt lat="48.84702" lon="2.32691">
        <ele>47.400001525879</ele>
        <time>2015-08-31T20:17:57Z</time>
      </trkpt>
      <trkpt lat="48.84698" lon="2.32664">
        <ele>49.20000076294</ele>
        <time>2015-08-31T20:18:08Z</time>
      </trkpt>
      <trkpt lat="48.84687" lon="2.32636">
        <ele>49.79999923706</ele>
        <time>2015-08-31T20:18:14Z</time>
      </trkpt>
      <trkpt lat="48.84677" lon="2.32609">
        <ele>50.400001525879</ele>
        <time>2015-08-31T20:18:21Z</time>
      </trkpt>
      <trkpt lat="48.84667" lon="2.32581">
        <ele>50.79999923706</ele>
        <time>2015-08-31T20:18:28Z</time>
      </trkpt>
      <trkpt lat="48.84655" lon="2.32559">
        <ele>49.20000076294</ele>
        <time>2015-08-31T20:18:34Z</time>
      </trkpt>
      <trkpt lat="48.84643" lon="2.32537">
        <ele>50.79999923706</ele>
        <time>2015-08-31T20:18:40Z</time>
      </trkpt>
      <trkpt lat="48.84635" lon="2.32507">
        <ele>52.599998474121</ele>
        <time>2015-08-31T20:18:46Z</time>
      </trkpt>
      <trkpt lat="48.84629" lon="2.32481">
        <ele>55.20000076294</ele>
        <time>2015-08-31T20:18:51Z</time>
      </trkpt>
      <trkpt lat="48.84621" lon="2.32454">
        <ele>56.599998474121</ele>
        <time>2015-08-31T20:18:56Z</time>
      </trkpt>
      <trkpt lat="48.84614" lon="2.32428">
        <ele>55.79999923706</ele>
        <time>2015-08-31T20:19:01Z</time>
      </trkpt>
      <trkpt lat="48.84606" lon="2.32402">
        <ele>53.79999923706</ele>
        <time>2015-08-31T20:19:06Z</time>
      </trkpt>
      <trkpt lat="48.84599" lon="2.32373">
        <ele>53.20000076294</ele>
        <time>2015-08-31T20:19:12Z</time>
      </trkpt>
      <trkpt lat="48.8459" lon="2.32344">
        <ele>54.79999923706</ele>
        <time>2015-08-31T20:19:18Z</time>
      </trkpt>
      <trkpt lat="48.84583" lon="2.32316">
        <ele>56.79999923706</ele>
        <time>2015-08-31T20:19:23Z</time>
      </trkpt>
      <trkpt lat="48.84579" lon="2.32285">
        <ele>56.400001525879</ele>
        <time>2015-08-31T20:19:28Z</time>
      </trkpt>
      <trkpt lat="48.84573" lon="2.32257">
        <ele>57</ele>
        <time>2015-08-31T20:19:34Z</time>
      </trkpt>
      <trkpt lat="48.84562" lon="2.32233">
        <ele>57.20000076294</ele>
        <time>2015-08-31T20:19:40Z</time>
      </trkpt>
      <trkpt lat="48.84553" lon="2.32207">
        <ele>59.79999923706</ele>
        <time>2015-08-31T20:19:46Z</time>
      </trkpt>
      <trkpt lat="48.84547" lon="2.32177">
        <ele>62.20000076294</ele>
        <time>2015-08-31T20:19:52Z</time>
      </trkpt>
      <trkpt lat="48.84542" lon="2.32151">
        <ele>64.199996948242</ele>
        <time>2015-08-31T20:19:57Z</time>
      </trkpt>
      <trkpt lat="48.84534" lon="2.32123">
        <ele>64.400001525879</ele>
        <time>2015-08-31T20:20:02Z</time>
      </trkpt>
      <trkpt lat="48.84524" lon="2.32099">
        <ele>62</ele>
        <time>2015-08-31T20:20:07Z</time>
      </trkpt>
      <trkpt lat="48.84516" lon="2.32075">
        <ele>55.400001525879</ele>
        <time>2015-08-31T20:20:12Z</time>
      </trkpt>
      <trkpt lat="48.84511" lon="2.32054">
        <ele>48.400001525879</ele>
        <time>2015-08-31T20:20:19Z</time>
      </trkpt>
      <trkpt lat="48.84515" lon="2.32036">
        <ele>51.20000076294</ele>
        <time>2015-08-31T20:21:31Z</time>
      </trkpt>
      <trkpt lat="48.84511" lon="2.32012">
        <ele>52.400001525879</ele>
        <time>2015-08-31T20:21:52Z</time>
      </trkpt>
      <trkpt lat="48.84507" lon="2.31984">
        <ele>52</ele>
        <time>2015-08-31T20:21:58Z</time>
      </trkpt>
      <trkpt lat="48.84508" lon="2.3197">
        <ele>51.79999923706</ele>
        <time>2015-08-31T20:22:04Z</time>
      </trkpt>
      <trkpt lat="48.84516" lon="2.3196">
        <ele>51.20000076294</ele>
        <time>2015-08-31T20:22:11Z</time>
      </trkpt>
      <trkpt lat="48.84531" lon="2.31939">
        <ele>50.599998474121</ele>
        <time>2015-08-31T20:22:19Z</time>
      </trkpt>
      <trkpt lat="48.84551" lon="2.31931">
        <ele>49</ele>
        <time>2015-08-31T20:22:25Z</time>
      </trkpt>
      <trkpt lat="48.84562" lon="2.31912">
        <ele>49.599998474121</ele>
        <time>2015-08-31T20:22:35Z</time>
      </trkpt>
      <trkpt lat="48.84541" lon="2.31893">
        <ele>46.79999923706</ele>
        <time>2015-08-31T20:22:41Z</time>
      </trkpt>
      <trkpt lat="48.84524" lon="2.31878">
        <ele>43</ele>
        <time>2015-08-31T20:22:46Z</time>
      </trkpt>
      <trkpt lat="48.84507" lon="2.3186">
        <ele>40.20000076294</ele>
        <time>2015-08-31T20:22:52Z</time>
      </trkpt>
      <trkpt lat="48.84495" lon="2.31834">
        <ele>40.599998474121</ele>
        <time>2015-08-31T20:22:57Z</time>
      </trkpt>
      <trkpt lat="48.84486" lon="2.31819">
        <ele>40</ele>
        <time>2015-08-31T20:23:01Z</time>
      </trkpt>
      <trkpt lat="48.84476" lon="2.31807">
        <ele>39.599998474121</ele>
        <time>2015-08-31T20:23:05Z</time>
      </trkpt>
      <trkpt lat="48.84463" lon="2.31789">
        <ele>35.400001525879</ele>
        <time>2015-08-31T20:23:15Z</time>
      </trkpt>
      <trkpt lat="48.84457" lon="2.31785">
        <ele>37.400001525879</ele>
        <time>2015-08-31T20:23:19Z</time>
      </trkpt>
      <trkpt lat="48.84443" lon="2.31774">
        <ele>46.400001525879</ele>
        <time>2015-08-31T20:23:46Z</time>
      </trkpt>
      <trkpt lat="48.84424" lon="2.31762">
        <ele>48.20000076294</ele>
        <time>2015-08-31T20:23:53Z</time>
      </trkpt>
      <trkpt lat="48.84405" lon="2.31748">
        <ele>49.599998474121</ele>
        <time>2015-08-31T20:23:58Z</time>
      </trkpt>
      <trkpt lat="48.84387" lon="2.3173">
        <ele>50.79999923706</ele>
        <time>2015-08-31T20:24:03Z</time>
      </trkpt>
      <trkpt lat="48.84364" lon="2.31718">
        <ele>51.20000076294</ele>
        <time>2015-08-31T20:24:07Z</time>
      </trkpt>
      <trkpt lat="48.84343" lon="2.31705">
        <ele>52.599998474121</ele>
        <time>2015-08-31T20:24:11Z</time>
      </trkpt>
      <trkpt lat="48.84324" lon="2.3169">
        <ele>54.400001525879</ele>
        <time>2015-08-31T20:24:16Z</time>
      </trkpt>
      <trkpt lat="48.84309" lon="2.31675">
        <ele>56.400001525879</ele>
        <time>2015-08-31T20:24:20Z</time>
      </trkpt>
      <trkpt lat="48.84296" lon="2.31661">
        <ele>57.79999923706</ele>
        <time>2015-08-31T20:24:24Z</time>
      </trkpt>
      <trkpt lat="48.84281" lon="2.31644">
        <ele>56</ele>
        <time>2015-08-31T20:24:28Z</time>
      </trkpt>
      <trkpt lat="48.84268" lon="2.3162">
        <ele>52.79999923706</ele>
        <time>2015-08-31T20:24:33Z</time>
      </trkpt>
      <trkpt lat="48.84258" lon="2.3161">
        <ele>49.599998474121</ele>
        <time>2015-08-31T20:24:37Z</time>
      </trkpt>
      <trkpt lat="48.84246" lon="2.31602">
        <ele>47.400001525879</ele>
        <time>2015-08-31T20:24:42Z</time>
      </trkpt>
      <trkpt lat="48.84227" lon="2.31593">
        <ele>44</ele>
        <time>2015-08-31T20:24:49Z</time>
      </trkpt>
      <trkpt lat="48.84226" lon="2.31582">
        <ele>44.400001525879</ele>
        <time>2015-08-31T20:24:51Z</time>
      </trkpt>
      <trkpt lat="48.84227" lon="2.31556">
        <ele>45.79999923706</ele>
        <time>2015-08-31T20:24:55Z</time>
      </trkpt>
      <trkpt lat="48.84218" lon="2.31527">
        <ele>45.400001525879</ele>
        <time>2015-08-31T20:25:01Z</time>
      </trkpt>
      <trkpt lat="48.84204" lon="2.31507">
        <ele>45.599998474121</ele>
        <time>2015-08-31T20:25:06Z</time>
      </trkpt>
      <trkpt lat="48.84187" lon="2.31491">
        <ele>45.20000076294</ele>
        <time>2015-08-31T20:25:11Z</time>
      </trkpt>
      <trkpt lat="48.84171" lon="2.31474">
        <ele>45.400001525879</ele>
        <time>2015-08-31T20:25:16Z</time>
      </trkpt>
      <trkpt lat="48.84159" lon="2.31452">
        <ele>44.79999923706</ele>
        <time>2015-08-31T20:25:22Z</time>
      </trkpt>
      <trkpt lat="48.8415" lon="2.31433">
        <ele>46.400001525879</ele>
        <time>2015-08-31T20:25:32Z</time>
      </trkpt>
      <trkpt lat="48.84167" lon="2.31402">
        <ele>48.79999923706</ele>
        <time>2015-08-31T20:26:16Z</time>
      </trkpt>
      <trkpt lat="48.84181" lon="2.31385">
        <ele>48</ele>
        <time>2015-08-31T20:26:22Z</time>
      </trkpt>
      <trkpt lat="48.84198" lon="2.31372">
        <ele>46.599998474121</ele>
        <time>2015-08-31T20:26:27Z</time>
      </trkpt>
      <trkpt lat="48.84215" lon="2.31355">
        <ele>44.20000076294</ele>
        <time>2015-08-31T20:26:32Z</time>
      </trkpt>
      <trkpt lat="48.8423" lon="2.31339">
        <ele>41</ele>
        <time>2015-08-31T20:26:40Z</time>
      </trkpt>
      <trkpt lat="48.8423" lon="2.31337">
        <ele>40.20000076294</ele>
        <time>2015-08-31T20:26:42Z</time>
      </trkpt>
      <trkpt lat="48.84247" lon="2.31326">
        <ele>39.400001525879</ele>
        <time>2015-08-31T20:27:07Z</time>
      </trkpt>
      <trkpt lat="48.84265" lon="2.31314">
        <ele>38.20000076294</ele>
        <time>2015-08-31T20:27:13Z</time>
      </trkpt>
      <trkpt lat="48.84282" lon="2.31303">
        <ele>36.79999923706</ele>
        <time>2015-08-31T20:27:18Z</time>
      </trkpt>
      <trkpt lat="48.84299" lon="2.31291">
        <ele>34.400001525879</ele>
        <time>2015-08-31T20:27:26Z</time>
      </trkpt>
      <trkpt lat="48.84315" lon="2.31278">
        <ele>35.599998474121</ele>
        <time>2015-08-31T20:27:34Z</time>
      </trkpt>
      <trkpt lat="48.84335" lon="2.31265">
        <ele>36.599998474121</ele>
        <time>2015-08-31T20:27:40Z</time>
      </trkpt>
      <trkpt lat="48.84352" lon="2.31247">
        <ele>37.400001525879</ele>
        <time>2015-08-31T20:27:46Z</time>
      </trkpt>
      <trkpt lat="48.84371" lon="2.31231">
        <ele>36.599998474121</ele>
        <time>2015-08-31T20:27:52Z</time>
      </trkpt>
      <trkpt lat="48.84386" lon="2.31216">
        <ele>36.400001525879</ele>
        <time>2015-08-31T20:27:56Z</time>
      </trkpt>
      <trkpt lat="48.84404" lon="2.31204">
        <ele>37.400001525879</ele>
        <time>2015-08-31T20:28:01Z</time>
      </trkpt>
      <trkpt lat="48.84421" lon="2.3119">
        <ele>36</ele>
        <time>2015-08-31T20:28:05Z</time>
      </trkpt>
      <trkpt lat="48.84438" lon="2.31178">
        <ele>34.400001525879</ele>
        <time>2015-08-31T20:28:09Z</time>
      </trkpt>
      <trkpt lat="48.84456" lon="2.31164">
        <ele>33.400001525879</ele>
        <time>2015-08-31T20:28:13Z</time>
      </trkpt>
      <trkpt lat="48.84472" lon="2.31152">
        <ele>34</ele>
        <time>2015-08-31T20:28:17Z</time>
      </trkpt>
      <trkpt lat="48.84479" lon="2.31147">
        <ele>34.20000076294</ele>
        <time>2015-08-31T20:28:19Z</time>
      </trkpt>
      <trkpt lat="48.84498" lon="2.31132">
        <ele>34.79999923706</ele>
        <time>2015-08-31T20:28:24Z</time>
      </trkpt>
      <trkpt lat="48.84509" lon="2.31119">
        <ele>34.599998474121</ele>
        <time>2015-08-31T20:28:30Z</time>
      </trkpt>
      <trkpt lat="48.84508" lon="2.31098">
        <ele>33.79999923706</ele>
        <time>2015-08-31T20:29:05Z</time>
      </trkpt>
      <trkpt lat="48.84504" lon="2.31077">
        <ele>33.20000076294</ele>
        <time>2015-08-31T20:29:14Z</time>
      </trkpt>
      <trkpt lat="48.84492" lon="2.31053">
        <ele>33.599998474121</ele>
        <time>2015-08-31T20:29:22Z</time>
      </trkpt>
      <trkpt lat="48.84481" lon="2.3103">
        <ele>34.20000076294</ele>
        <time>2015-08-31T20:29:28Z</time>
      </trkpt>
      <trkpt lat="48.84472" lon="2.31003">
        <ele>36.20000076294</ele>
        <time>2015-08-31T20:29:34Z</time>
      </trkpt>
      <trkpt lat="48.84463" lon="2.30978">
        <ele>38.79999923706</ele>
        <time>2015-08-31T20:29:40Z</time>
      </trkpt>
      <trkpt lat="48.84455" lon="2.30947">
        <ele>45.20000076294</ele>
        <time>2015-08-31T20:29:46Z</time>
      </trkpt>
      <trkpt lat="48.84449" lon="2.30919">
        <ele>51.400001525879</ele>
        <time>2015-08-31T20:29:51Z</time>
      </trkpt>
      <trkpt lat="48.84439" lon="2.30896">
        <ele>62.599998474121</ele>
        <time>2015-08-31T20:30:01Z</time>
      </trkpt>
      <trkpt lat="48.84418" lon="2.30892">
        <ele>67</ele>
        <time>2015-08-31T20:30:09Z</time>
      </trkpt>
      <trkpt lat="48.84414" lon="2.30887">
        <ele>67</ele>
        <time>2015-08-31T20:30:11Z</time>
      </trkpt>
      <trkpt lat="48.84396" lon="2.30868">
        <ele>62.20000076294</ele>
        <time>2015-08-31T20:30:25Z</time>
      </trkpt>
      <trkpt lat="48.84386" lon="2.30863">
        <ele>61.79999923706</ele>
        <time>2015-08-31T20:30:27Z</time>
      </trkpt>
      <trkpt lat="48.84379" lon="2.30859">
        <ele>60.79999923706</ele>
        <time>2015-08-31T20:30:28Z</time>
      </trkpt>
      <trkpt lat="48.84366" lon="2.30839">
        <ele>59.79999923706</ele>
        <time>2015-08-31T20:30:32Z</time>
      </trkpt>
      <trkpt lat="48.84355" lon="2.30817">
        <ele>58.79999923706</ele>
        <time>2015-08-31T20:30:36Z</time>
      </trkpt>
      <trkpt lat="48.84338" lon="2.30798">
        <ele>57.599998474121</ele>
        <time>2015-08-31T20:30:40Z</time>
      </trkpt>
      <trkpt lat="48.84324" lon="2.30774">
        <ele>56.400001525879</ele>
        <time>2015-08-31T20:30:45Z</time>
      </trkpt>
      <trkpt lat="48.84317" lon="2.30756">
        <ele>53.79999923706</ele>
        <time>2015-08-31T20:30:49Z</time>
      </trkpt>
      <trkpt lat="48.8431" lon="2.3073">
        <ele>50.79999923706</ele>
        <time>2015-08-31T20:30:56Z</time>
      </trkpt>
      <trkpt lat="48.84303" lon="2.307">
        <ele>47</ele>
        <time>2015-08-31T20:31:05Z</time>
      </trkpt>
      <trkpt lat="48.84291" lon="2.30676">
        <ele>45.599998474121</ele>
        <time>2015-08-31T20:31:11Z</time>
      </trkpt>
      <trkpt lat="48.84279" lon="2.30653">
        <ele>45</ele>
        <time>2015-08-31T20:31:16Z</time>
      </trkpt>
      <trkpt lat="48.84268" lon="2.30627">
        <ele>44.79999923706</ele>
        <time>2015-08-31T20:31:22Z</time>
      </trkpt>
      <trkpt lat="48.84264" lon="2.30594">
        <ele>45.599998474121</ele>
        <time>2015-08-31T20:31:28Z</time>
      </trkpt>
      <trkpt lat="48.84254" lon="2.3057">
        <ele>44.400001525879</ele>
        <time>2015-08-31T20:31:33Z</time>
      </trkpt>
      <trkpt lat="48.84248" lon="2.30542">
        <ele>45</ele>
        <time>2015-08-31T20:31:38Z</time>
      </trkpt>
      <trkpt lat="48.84239" lon="2.30514">
        <ele>47</ele>
        <time>2015-08-31T20:31:43Z</time>
      </trkpt>
      <trkpt lat="48.84231" lon="2.30487">
        <ele>51</ele>
        <time>2015-08-31T20:31:48Z</time>
      </trkpt>
      <trkpt lat="48.84219" lon="2.30466">
        <ele>53.400001525879</ele>
        <time>2015-08-31T20:31:53Z</time>
      </trkpt>
      <trkpt lat="48.84211" lon="2.30441">
        <ele>55.20000076294</ele>
        <time>2015-08-31T20:31:58Z</time>
      </trkpt>
      <trkpt lat="48.84202" lon="2.30415">
        <ele>57.599998474121</ele>
        <time>2015-08-31T20:32:03Z</time>
      </trkpt>
      <trkpt lat="48.84194" lon="2.30389">
        <ele>60</ele>
        <time>2015-08-31T20:32:08Z</time>
      </trkpt>
      <trkpt lat="48.84195" lon="2.30357">
        <ele>60.599998474121</ele>
        <time>2015-08-31T20:32:14Z</time>
      </trkpt>
      <trkpt lat="48.84193" lon="2.30328">
        <ele>64.199996948242</ele>
        <time>2015-08-31T20:32:21Z</time>
      </trkpt>
      <trkpt lat="48.84183" lon="2.30301">
        <ele>67.400001525879</ele>
        <time>2015-08-31T20:32:29Z</time>
      </trkpt>
      <trkpt lat="48.84168" lon="2.30282">
        <ele>70.599998474121</ele>
        <time>2015-08-31T20:32:36Z</time>
      </trkpt>
      <trkpt lat="48.84157" lon="2.30259">
        <ele>72</ele>
        <time>2015-08-31T20:32:42Z</time>
      </trkpt>
      <trkpt lat="48.8415" lon="2.30233">
        <ele>74.400001525879</ele>
        <time>2015-08-31T20:32:48Z</time>
      </trkpt>
      <trkpt lat="48.84146" lon="2.30213">
        <ele>75.599998474121</ele>
        <time>2015-08-31T20:32:52Z</time>
      </trkpt>
      <trkpt lat="48.84141" lon="2.30183">
        <ele>75.199996948242</ele>
        <time>2015-08-31T20:32:58Z</time>
      </trkpt>
      <trkpt lat="48.84132" lon="2.30159">
        <ele>74</ele>
        <time>2015-08-31T20:33:03Z</time>
      </trkpt>
      <trkpt lat="48.84124" lon="2.30134">
        <ele>73.400001525879</ele>
        <time>2015-08-31T20:33:08Z</time>
      </trkpt>
      <trkpt lat="48.84111" lon="2.30114">
        <ele>72.400001525879</ele>
        <time>2015-08-31T20:33:13Z</time>
      </trkpt>
      <trkpt lat="48.84102" lon="2.30085">
        <ele>71.800003051758</ele>
        <time>2015-08-31T20:33:19Z</time>
      </trkpt>
      <trkpt lat="48.84093" lon="2.30057">
        <ele>72.599998474121</ele>
        <time>2015-08-31T20:33:25Z</time>
      </trkpt>
      <trkpt lat="48.84087" lon="2.30028">
        <ele>68</ele>
        <time>2015-08-31T20:33:32Z</time>
      </trkpt>
      <trkpt lat="48.84079" lon="2.3">
        <ele>69</ele>
        <time>2015-08-31T20:33:40Z</time>
      </trkpt>
      <trkpt lat="48.84074" lon="2.29985">
        <ele>69.800003051758</ele>
        <time>2015-08-31T20:33:44Z</time>
      </trkpt>
      <trkpt lat="48.84069" lon="2.29955">
        <ele>71.800003051758</ele>
        <time>2015-08-31T20:33:51Z</time>
      </trkpt>
      <trkpt lat="48.8406" lon="2.2993">
        <ele>73.199996948242</ele>
        <time>2015-08-31T20:33:57Z</time>
      </trkpt>
      <trkpt lat="48.84049" lon="2.29903">
        <ele>71.400001525879</ele>
        <time>2015-08-31T20:34:02Z</time>
      </trkpt>
      <trkpt lat="48.8404" lon="2.29879">
        <ele>70.599998474121</ele>
        <time>2015-08-31T20:34:06Z</time>
      </trkpt>
      <trkpt lat="48.84026" lon="2.29853">
        <ele>70.800003051758</ele>
        <time>2015-08-31T20:34:11Z</time>
      </trkpt>
      <trkpt lat="48.84019" lon="2.29827">
        <ele>71.400001525879</ele>
        <time>2015-08-31T20:34:15Z</time>
      </trkpt>
      <trkpt lat="48.84012" lon="2.29802">
        <ele>71.599998474121</ele>
        <time>2015-08-31T20:34:19Z</time>
      </trkpt>
      <trkpt lat="48.84005" lon="2.29775">
        <ele>70.800003051758</ele>
        <time>2015-08-31T20:34:23Z</time>
      </trkpt>
      <trkpt lat="48.83996" lon="2.29747">
        <ele>64.800003051758</ele>
        <time>2015-08-31T20:34:27Z</time>
      </trkpt>
      <trkpt lat="48.83985" lon="2.29723">
        <ele>61.599998474121</ele>
        <time>2015-08-31T20:34:31Z</time>
      </trkpt>
      <trkpt lat="48.83973" lon="2.29697">
        <ele>59.79999923706</ele>
        <time>2015-08-31T20:34:36Z</time>
      </trkpt>
      <trkpt lat="48.83965" lon="2.29669">
        <ele>57.20000076294</ele>
        <time>2015-08-31T20:34:41Z</time>
      </trkpt>
      <trkpt lat="48.8396" lon="2.2966">
        <ele>56.20000076294</ele>
        <time>2015-08-31T20:34:43Z</time>
      </trkpt>
      <trkpt lat="48.83948" lon="2.29641">
        <ele>49.79999923706</ele>
        <time>2015-08-31T20:34:47Z</time>
      </trkpt>
      <trkpt lat="48.83943" lon="2.29619">
        <ele>41.20000076294</ele>
        <time>2015-08-31T20:34:51Z</time>
      </trkpt>
      <trkpt lat="48.83931" lon="2.29597">
        <ele>35.20000076294</ele>
        <time>2015-08-31T20:34:56Z</time>
      </trkpt>
      <trkpt lat="48.83918" lon="2.29575">
        <ele>32.599998474121</ele>
        <time>2015-08-31T20:35:01Z</time>
      </trkpt>
      <trkpt lat="48.8391" lon="2.29561">
        <ele>31.200000762939</ele>
        <time>2015-08-31T20:35:04Z</time>
      </trkpt>
      <trkpt lat="48.83896" lon="2.29536">
        <ele>29.39999961853</ele>
        <time>2015-08-31T20:35:09Z</time>
      </trkpt>
      <trkpt lat="48.8389" lon="2.29526">
        <ele>29.200000762939</ele>
        <time>2015-08-31T20:35:11Z</time>
      </trkpt>
      <trkpt lat="48.83878" lon="2.29507">
        <ele>29</ele>
        <time>2015-08-31T20:35:15Z</time>
      </trkpt>
      <trkpt lat="48.83861" lon="2.2949">
        <ele>28.60000038147</ele>
        <time>2015-08-31T20:35:20Z</time>
      </trkpt>
      <trkpt lat="48.83858" lon="2.29487">
        <ele>28.39999961853</ele>
        <time>2015-08-31T20:35:21Z</time>
      </trkpt>
      <trkpt lat="48.83842" lon="2.29472">
        <ele>27.39999961853</ele>
        <time>2015-08-31T20:35:28Z</time>
      </trkpt>
      <trkpt lat="48.83829" lon="2.29465">
        <ele>28.60000038147</ele>
        <time>2015-08-31T20:35:37Z</time>
      </trkpt>
      <trkpt lat="48.83826" lon="2.29461">
        <ele>30</ele>
        <time>2015-08-31T20:35:41Z</time>
      </trkpt>
      <trkpt lat="48.83821" lon="2.29458">
        <ele>35</ele>
        <time>2015-08-31T20:35:56Z</time>
      </trkpt>
      <trkpt lat="48.83822" lon="2.29457">
        <ele>45</ele>
        <time>2015-08-31T20:36:20Z</time>
      </trkpt>
      <trkpt lat="48.83823" lon="2.29457">
        <ele>46.599998474121</ele>
        <time>2015-08-31T20:36:23Z</time>
      </trkpt>
      <trkpt lat="48.83805" lon="2.29446">
        <ele>49</ele>
        <time>2015-08-31T20:36:43Z</time>
      </trkpt>
      <trkpt lat="48.83786" lon="2.2943">
        <ele>43.79999923706</ele>
        <time>2015-08-31T20:36:48Z</time>
      </trkpt>
      <trkpt lat="48.83763" lon="2.29418">
        <ele>41.79999923706</ele>
        <time>2015-08-31T20:36:54Z</time>
      </trkpt>
      <trkpt lat="48.83742" lon="2.2941">
        <ele>41.400001525879</ele>
        <time>2015-08-31T20:36:59Z</time>
      </trkpt>
      <trkpt lat="48.83725" lon="2.29398">
        <ele>39.79999923706</ele>
        <time>2015-08-31T20:37:04Z</time>
      </trkpt>
      <trkpt lat="48.83709" lon="2.29378">
        <ele>39</ele>
        <time>2015-08-31T20:37:10Z</time>
      </trkpt>
      <trkpt lat="48.83696" lon="2.29358">
        <ele>38.599998474121</ele>
        <time>2015-08-31T20:37:15Z</time>
      </trkpt>
      <trkpt lat="48.83686" lon="2.29335">
        <ele>37</ele>
        <time>2015-08-31T20:37:20Z</time>
      </trkpt>
      <trkpt lat="48.83675" lon="2.29313">
        <ele>36.79999923706</ele>
        <time>2015-08-31T20:37:25Z</time>
      </trkpt>
      <trkpt lat="48.83677" lon="2.29289">
        <ele>34.599998474121</ele>
        <time>2015-08-31T20:37:29Z</time>
      </trkpt>
      <trkpt lat="48.83688" lon="2.29267">
        <ele>33.400001525879</ele>
        <time>2015-08-31T20:37:34Z</time>
      </trkpt>
      <trkpt lat="48.83695" lon="2.29259">
        <ele>32</ele>
        <time>2015-08-31T20:37:36Z</time>
      </trkpt>
      <trkpt lat="48.8371" lon="2.29241">
        <ele>29</ele>
        <time>2015-08-31T20:37:42Z</time>
      </trkpt>
      <trkpt lat="48.83724" lon="2.29222">
        <ele>26.799999237061</ele>
        <time>2015-08-31T20:37:47Z</time>
      </trkpt>
      <trkpt lat="48.8374" lon="2.29206">
        <ele>24.200000762939</ele>
        <time>2015-08-31T20:37:52Z</time>
      </trkpt>
      <trkpt lat="48.83755" lon="2.29185">
        <ele>20.39999961853</ele>
        <time>2015-08-31T20:37:58Z</time>
      </trkpt>
      <trkpt lat="48.83766" lon="2.29162">
        <ele>17.39999961853</ele>
        <time>2015-08-31T20:38:03Z</time>
      </trkpt>
      <trkpt lat="48.8378" lon="2.29139">
        <ele>11.39999961853</ele>
        <time>2015-08-31T20:38:10Z</time>
      </trkpt>
      <trkpt lat="48.83792" lon="2.29119">
        <ele>7.5999999046326</ele>
        <time>2015-08-31T20:38:16Z</time>
      </trkpt>
      <trkpt lat="48.83805" lon="2.29101">
        <ele>6.8000001907349</ele>
        <time>2015-08-31T20:38:21Z</time>
      </trkpt>
      <trkpt lat="48.83822" lon="2.29084">
        <ele>4</ele>
        <time>2015-08-31T20:38:26Z</time>
      </trkpt>
      <trkpt lat="48.8384" lon="2.2907">
        <ele>2.4000000953674</ele>
        <time>2015-08-31T20:38:31Z</time>
      </trkpt>
      <trkpt lat="48.83855" lon="2.29051">
        <ele>-0.20000000298023</ele>
        <time>2015-08-31T20:38:37Z</time>
      </trkpt>
      <trkpt lat="48.83864" lon="2.29029">
        <ele>-3.5999999046326</ele>
        <time>2015-08-31T20:38:44Z</time>
      </trkpt>
      <trkpt lat="48.83877" lon="2.29017">
        <ele>10.800000190735</ele>
        <time>2015-08-31T20:38:59Z</time>
      </trkpt>
      <trkpt lat="48.83881" lon="2.29021">
        <ele>26.799999237061</ele>
        <time>2015-08-31T20:39:25Z</time>
      </trkpt>
      <trkpt lat="48.83884" lon="2.29018">
        <ele>49</ele>
        <time>2015-08-31T20:40:37Z</time>
      </trkpt>
      <trkpt lat="48.83884" lon="2.29011">
        <ele>54</ele>
        <time>2015-08-31T20:40:50Z</time>
      </trkpt>
      <trkpt lat="48.83875" lon="2.28986">
        <ele>57.400001525879</ele>
        <time>2015-08-31T20:40:59Z</time>
      </trkpt>
      <trkpt lat="48.83872" lon="2.28959">
        <ele>59.79999923706</ele>
        <time>2015-08-31T20:41:08Z</time>
      </trkpt>
      <trkpt lat="48.83863" lon="2.28938">
        <ele>63</ele>
        <time>2015-08-31T20:41:18Z</time>
      </trkpt>
      <trkpt lat="48.83843" lon="2.28935">
        <ele>58.400001525879</ele>
        <time>2015-08-31T20:41:24Z</time>
      </trkpt>
      <trkpt lat="48.83823" lon="2.28935">
        <ele>56.20000076294</ele>
        <time>2015-08-31T20:41:31Z</time>
      </trkpt>
      <trkpt lat="48.83802" lon="2.28936">
        <ele>52.79999923706</ele>
        <time>2015-08-31T20:41:36Z</time>
      </trkpt>
      <trkpt lat="48.83781" lon="2.28938">
        <ele>50</ele>
        <time>2015-08-31T20:41:42Z</time>
      </trkpt>
      <trkpt lat="48.83761" lon="2.28938">
        <ele>47.79999923706</ele>
        <time>2015-08-31T20:41:47Z</time>
      </trkpt>
      <trkpt lat="48.83741" lon="2.28941">
        <ele>45.599998474121</ele>
        <time>2015-08-31T20:41:53Z</time>
      </trkpt>
      <trkpt lat="48.83721" lon="2.28941">
        <ele>42.20000076294</ele>
        <time>2015-08-31T20:41:59Z</time>
      </trkpt>
      <trkpt lat="48.837" lon="2.28942">
        <ele>37</ele>
        <time>2015-08-31T20:42:03Z</time>
      </trkpt>
      <trkpt lat="48.83679" lon="2.28946">
        <ele>33.400001525879</ele>
        <time>2015-08-31T20:42:07Z</time>
      </trkpt>
      <trkpt lat="48.83658" lon="2.28949">
        <ele>31.39999961853</ele>
        <time>2015-08-31T20:42:11Z</time>
      </trkpt>
      <trkpt lat="48.83639" lon="2.28952">
        <ele>29.60000038147</ele>
        <time>2015-08-31T20:42:15Z</time>
      </trkpt>
      <trkpt lat="48.8362" lon="2.28954">
        <ele>28.60000038147</ele>
        <time>2015-08-31T20:42:19Z</time>
      </trkpt>
      <trkpt lat="48.83602" lon="2.28959">
        <ele>28</ele>
        <time>2015-08-31T20:42:23Z</time>
      </trkpt>
      <trkpt lat="48.83597" lon="2.28962">
        <ele>28.39999961853</ele>
        <time>2015-08-31T20:42:24Z</time>
      </trkpt>
      <trkpt lat="48.83584" lon="2.28971">
        <ele>29.39999961853</ele>
        <time>2015-08-31T20:42:27Z</time>
      </trkpt>
      <trkpt lat="48.83564" lon="2.28973">
        <ele>27.39999961853</ele>
        <time>2015-08-31T20:42:32Z</time>
      </trkpt>
      <trkpt lat="48.83545" lon="2.28978">
        <ele>24.799999237061</ele>
        <time>2015-08-31T20:42:37Z</time>
      </trkpt>
      <trkpt lat="48.83525" lon="2.2898">
        <ele>22</ele>
        <time>2015-08-31T20:42:43Z</time>
      </trkpt>
      <trkpt lat="48.83507" lon="2.28978">
        <ele>20.39999961853</ele>
        <time>2015-08-31T20:42:48Z</time>
      </trkpt>
      <trkpt lat="48.83486" lon="2.28981">
        <ele>19</ele>
        <time>2015-08-31T20:42:53Z</time>
      </trkpt>
      <trkpt lat="48.83468" lon="2.28986">
        <ele>16.60000038147</ele>
        <time>2015-08-31T20:42:58Z</time>
      </trkpt>
      <trkpt lat="48.83448" lon="2.28998">
        <ele>13</ele>
        <time>2015-08-31T20:43:04Z</time>
      </trkpt>
      <trkpt lat="48.83428" lon="2.28999">
        <ele>11.800000190735</ele>
        <time>2015-08-31T20:43:09Z</time>
      </trkpt>
      <trkpt lat="48.83411" lon="2.28996">
        <ele>13.39999961853</ele>
        <time>2015-08-31T20:43:15Z</time>
      </trkpt>
      <trkpt lat="48.83418" lon="2.28991">
        <ele>16</ele>
        <time>2015-08-31T20:43:21Z</time>
      </trkpt>
      <trkpt lat="48.83436" lon="2.28987">
        <ele>22.60000038147</ele>
        <time>2015-08-31T20:43:30Z</time>
      </trkpt>
      <trkpt lat="48.83443" lon="2.28979">
        <ele>25.200000762939</ele>
        <time>2015-08-31T20:43:37Z</time>
      </trkpt>
      <trkpt lat="48.83456" lon="2.28961">
        <ele>26.200000762939</ele>
        <time>2015-08-31T20:43:48Z</time>
      </trkpt>
      <trkpt lat="48.83472" lon="2.28945">
        <ele>26.200000762939</ele>
        <time>2015-08-31T20:43:53Z</time>
      </trkpt>
      <trkpt lat="48.83492" lon="2.2893">
        <ele>25.799999237061</ele>
        <time>2015-08-31T20:43:58Z</time>
      </trkpt>
      <trkpt lat="48.83509" lon="2.28915">
        <ele>25.60000038147</ele>
        <time>2015-08-31T20:44:03Z</time>
      </trkpt>
      <trkpt lat="48.83505" lon="2.28908">
        <ele>25.39999961853</ele>
        <time>2015-08-31T20:44:04Z</time>
      </trkpt>
      <trkpt lat="48.83494" lon="2.28884">
        <ele>24.39999961853</ele>
        <time>2015-08-31T20:44:08Z</time>
      </trkpt>
      <trkpt lat="48.8348" lon="2.28861">
        <ele>24.39999961853</ele>
        <time>2015-08-31T20:44:13Z</time>
      </trkpt>
      <trkpt lat="48.83469" lon="2.28839">
        <ele>24.200000762939</ele>
        <time>2015-08-31T20:44:19Z</time>
      </trkpt>
      <trkpt lat="48.83452" lon="2.28822">
        <ele>25.39999961853</ele>
        <time>2015-08-31T20:44:26Z</time>
      </trkpt>
      <trkpt lat="48.83438" lon="2.28804">
        <ele>26</ele>
        <time>2015-08-31T20:44:34Z</time>
      </trkpt>
      <trkpt lat="48.83425" lon="2.28783">
        <ele>26.799999237061</ele>
        <time>2015-08-31T20:44:41Z</time>
      </trkpt>
      <trkpt lat="48.8341" lon="2.28762">
        <ele>28.200000762939</ele>
        <time>2015-08-31T20:44:47Z</time>
      </trkpt>
      <trkpt lat="48.83394" lon="2.28741">
        <ele>29.799999237061</ele>
        <time>2015-08-31T20:44:53Z</time>
      </trkpt>
      <trkpt lat="48.83382" lon="2.2872">
        <ele>30.200000762939</ele>
        <time>2015-08-31T20:44:59Z</time>
      </trkpt>
      <trkpt lat="48.83371" lon="2.28699">
        <ele>29.799999237061</ele>
        <time>2015-08-31T20:45:05Z</time>
      </trkpt>
      <trkpt lat="48.83357" lon="2.28678">
        <ele>31</ele>
        <time>2015-08-31T20:45:12Z</time>
      </trkpt>
      <trkpt lat="48.83351" lon="2.28672">
        <ele>31.39999961853</ele>
        <time>2015-08-31T20:45:17Z</time>
      </trkpt>
      <trkpt lat="48.83341" lon="2.28654">
        <ele>32.400001525879</ele>
        <time>2015-08-31T20:45:58Z</time>
      </trkpt>
      <trkpt lat="48.83338" lon="2.28658">
        <ele>32.400001525879</ele>
        <time>2015-08-31T20:46:01Z</time>
      </trkpt>
      <trkpt lat="48.83332" lon="2.28673">
        <ele>32.79999923706</ele>
        <time>2015-08-31T20:46:07Z</time>
      </trkpt>
      <trkpt lat="48.83321" lon="2.28697">
        <ele>32.400001525879</ele>
        <time>2015-08-31T20:46:15Z</time>
      </trkpt>
      <trkpt lat="48.83306" lon="2.28715">
        <ele>31.60000038147</ele>
        <time>2015-08-31T20:46:24Z</time>
      </trkpt>
      <trkpt lat="48.83294" lon="2.28736">
        <ele>31.60000038147</ele>
        <time>2015-08-31T20:46:31Z</time>
      </trkpt>
      <trkpt lat="48.83286" lon="2.28766">
        <ele>32</ele>
        <time>2015-08-31T20:46:37Z</time>
      </trkpt>
      <trkpt lat="48.83288" lon="2.28803">
        <ele>27.799999237061</ele>
        <time>2015-08-31T20:46:41Z</time>
      </trkpt>
      <trkpt lat="48.83284" lon="2.28833">
        <ele>27.39999961853</ele>
        <time>2015-08-31T20:46:49Z</time>
      </trkpt>
      <trkpt lat="48.83287" lon="2.28855">
        <ele>26.39999961853</ele>
        <time>2015-08-31T20:46:54Z</time>
      </trkpt>
      <trkpt lat="48.83299" lon="2.28877">
        <ele>27.60000038147</ele>
        <time>2015-08-31T20:47:00Z</time>
      </trkpt>
      <trkpt lat="48.83313" lon="2.28896">
        <ele>30.200000762939</ele>
        <time>2015-08-31T20:47:06Z</time>
      </trkpt>
      <trkpt lat="48.83329" lon="2.28916">
        <ele>34.20000076294</ele>
        <time>2015-08-31T20:47:13Z</time>
      </trkpt>
      <trkpt lat="48.83344" lon="2.28937">
        <ele>37.20000076294</ele>
        <time>2015-08-31T20:47:19Z</time>
      </trkpt>
      <trkpt lat="48.83356" lon="2.28958">
        <ele>38.400001525879</ele>
        <time>2015-08-31T20:47:24Z</time>
      </trkpt>
      <trkpt lat="48.83373" lon="2.28977">
        <ele>37.79999923706</ele>
        <time>2015-08-31T20:47:31Z</time>
      </trkpt>
      <trkpt lat="48.83386" lon="2.28996">
        <ele>39.400001525879</ele>
        <time>2015-08-31T20:47:37Z</time>
      </trkpt>
      <trkpt lat="48.83394" lon="2.2901">
        <ele>39.599998474121</ele>
        <time>2015-08-31T20:47:42Z</time>
      </trkpt>
      <trkpt lat="48.83406" lon="2.29029">
        <ele>39.400001525879</ele>
        <time>2015-08-31T20:47:51Z</time>
      </trkpt>
      <trkpt lat="48.83411" lon="2.29042">
        <ele>40.79999923706</ele>
        <time>2015-08-31T20:47:58Z</time>
      </trkpt>
      <trkpt lat="48.83415" lon="2.29049">
        <ele>50.79999923706</ele>
        <time>2015-08-31T20:49:06Z</time>
      </trkpt>
      <trkpt lat="48.83432" lon="2.29057">
        <ele>54.599998474121</ele>
        <time>2015-08-31T20:49:32Z</time>
      </trkpt>
      <trkpt lat="48.83446" lon="2.29079">
        <ele>56.79999923706</ele>
        <time>2015-08-31T20:49:42Z</time>
      </trkpt>
      <trkpt lat="48.83461" lon="2.291">
        <ele>58</ele>
        <time>2015-08-31T20:49:50Z</time>
      </trkpt>
      <trkpt lat="48.83471" lon="2.29123">
        <ele>58.599998474121</ele>
        <time>2015-08-31T20:49:58Z</time>
      </trkpt>
      <trkpt lat="48.8348" lon="2.29148">
        <ele>57.20000076294</ele>
        <time>2015-08-31T20:50:07Z</time>
      </trkpt>
      <trkpt lat="48.83494" lon="2.29171">
        <ele>54.20000076294</ele>
        <time>2015-08-31T20:50:15Z</time>
      </trkpt>
      <trkpt lat="48.83506" lon="2.29194">
        <ele>53.20000076294</ele>
        <time>2015-08-31T20:50:22Z</time>
      </trkpt>
      <trkpt lat="48.83519" lon="2.29215">
        <ele>50.79999923706</ele>
        <time>2015-08-31T20:50:29Z</time>
      </trkpt>
      <trkpt lat="48.83532" lon="2.29237">
        <ele>49.400001525879</ele>
        <time>2015-08-31T20:50:34Z</time>
      </trkpt>
      <trkpt lat="48.83546" lon="2.29262">
        <ele>47.599998474121</ele>
        <time>2015-08-31T20:50:39Z</time>
      </trkpt>
      <trkpt lat="48.83558" lon="2.29285">
        <ele>45.20000076294</ele>
        <time>2015-08-31T20:50:43Z</time>
      </trkpt>
      <trkpt lat="48.83567" lon="2.29309">
        <ele>43.79999923706</ele>
        <time>2015-08-31T20:50:47Z</time>
      </trkpt>
      <trkpt lat="48.83579" lon="2.29336">
        <ele>42.599998474121</ele>
        <time>2015-08-31T20:50:52Z</time>
      </trkpt>
      <trkpt lat="48.83591" lon="2.2936">
        <ele>40.79999923706</ele>
        <time>2015-08-31T20:50:57Z</time>
      </trkpt>
      <trkpt lat="48.83605" lon="2.29383">
        <ele>38.599998474121</ele>
        <time>2015-08-31T20:51:02Z</time>
      </trkpt>
      <trkpt lat="48.83611" lon="2.294">
        <ele>37.20000076294</ele>
        <time>2015-08-31T20:51:05Z</time>
      </trkpt>
      <trkpt lat="48.83615" lon="2.29416">
        <ele>35.79999923706</ele>
        <time>2015-08-31T20:51:08Z</time>
      </trkpt>
      <trkpt lat="48.83625" lon="2.29444">
        <ele>34.400001525879</ele>
        <time>2015-08-31T20:51:13Z</time>
      </trkpt>
      <trkpt lat="48.83636" lon="2.29474">
        <ele>32.79999923706</ele>
        <time>2015-08-31T20:51:18Z</time>
      </trkpt>
      <trkpt lat="48.83647" lon="2.29496">
        <ele>32.20000076294</ele>
        <time>2015-08-31T20:51:22Z</time>
      </trkpt>
      <trkpt lat="48.8366" lon="2.29522">
        <ele>31.200000762939</ele>
        <time>2015-08-31T20:51:27Z</time>
      </trkpt>
      <trkpt lat="48.83675" lon="2.29547">
        <ele>31</ele>
        <time>2015-08-31T20:51:32Z</time>
      </trkpt>
      <trkpt lat="48.8369" lon="2.29569">
        <ele>31.39999961853</ele>
        <time>2015-08-31T20:51:36Z</time>
      </trkpt>
      <trkpt lat="48.83704" lon="2.29594">
        <ele>31.200000762939</ele>
        <time>2015-08-31T20:51:41Z</time>
      </trkpt>
      <trkpt lat="48.83716" lon="2.29618">
        <ele>31.200000762939</ele>
        <time>2015-08-31T20:51:46Z</time>
      </trkpt>
      <trkpt lat="48.83721" lon="2.29632">
        <ele>32.599998474121</ele>
        <time>2015-08-31T20:51:49Z</time>
      </trkpt>
      <trkpt lat="48.83737" lon="2.29648">
        <ele>42</ele>
        <time>2015-08-31T20:52:31Z</time>
      </trkpt>
      <trkpt lat="48.8375" lon="2.29671">
        <ele>43</ele>
        <time>2015-08-31T20:52:39Z</time>
      </trkpt>
      <trkpt lat="48.8376" lon="2.29697">
        <ele>42</ele>
        <time>2015-08-31T20:52:46Z</time>
      </trkpt>
      <trkpt lat="48.8377" lon="2.29721">
        <ele>41.79999923706</ele>
        <time>2015-08-31T20:52:53Z</time>
      </trkpt>
      <trkpt lat="48.8378" lon="2.29747">
        <ele>42.20000076294</ele>
        <time>2015-08-31T20:53:01Z</time>
      </trkpt>
      <trkpt lat="48.83788" lon="2.29775">
        <ele>40.400001525879</ele>
        <time>2015-08-31T20:53:09Z</time>
      </trkpt>
      <trkpt lat="48.838" lon="2.298">
        <ele>37.79999923706</ele>
        <time>2015-08-31T20:53:16Z</time>
      </trkpt>
      <trkpt lat="48.8381" lon="2.29822">
        <ele>37</ele>
        <time>2015-08-31T20:53:22Z</time>
      </trkpt>
      <trkpt lat="48.83821" lon="2.29846">
        <ele>36</ele>
        <time>2015-08-31T20:53:28Z</time>
      </trkpt>
      <trkpt lat="48.83839" lon="2.29863">
        <ele>36.79999923706</ele>
        <time>2015-08-31T20:53:34Z</time>
      </trkpt>
      <trkpt lat="48.83855" lon="2.29882">
        <ele>40.400001525879</ele>
        <time>2015-08-31T20:53:40Z</time>
      </trkpt>
      <trkpt lat="48.8387" lon="2.29902">
        <ele>44.20000076294</ele>
        <time>2015-08-31T20:53:45Z</time>
      </trkpt>
      <trkpt lat="48.83883" lon="2.29923">
        <ele>47.79999923706</ele>
        <time>2015-08-31T20:53:51Z</time>
      </trkpt>
      <trkpt lat="48.83893" lon="2.29945">
        <ele>49.599998474121</ele>
        <time>2015-08-31T20:53:57Z</time>
      </trkpt>
      <trkpt lat="48.83901" lon="2.29973">
        <ele>49.400001525879</ele>
        <time>2015-08-31T20:54:04Z</time>
      </trkpt>
      <trkpt lat="48.83911" lon="2.29996">
        <ele>50</ele>
        <time>2015-08-31T20:54:10Z</time>
      </trkpt>
      <trkpt lat="48.83921" lon="2.3002">
        <ele>50.20000076294</ele>
        <time>2015-08-31T20:54:16Z</time>
      </trkpt>
      <trkpt lat="48.83933" lon="2.30042">
        <ele>50.599998474121</ele>
        <time>2015-08-31T20:54:20Z</time>
      </trkpt>
      <trkpt lat="48.83946" lon="2.30063">
        <ele>49.599998474121</ele>
        <time>2015-08-31T20:54:25Z</time>
      </trkpt>
      <trkpt lat="48.83954" lon="2.30089">
        <ele>49.599998474121</ele>
        <time>2015-08-31T20:54:31Z</time>
      </trkpt>
      <trkpt lat="48.83963" lon="2.30118">
        <ele>51.599998474121</ele>
        <time>2015-08-31T20:54:38Z</time>
      </trkpt>
      <trkpt lat="48.83971" lon="2.30146">
        <ele>52.20000076294</ele>
        <time>2015-08-31T20:54:44Z</time>
      </trkpt>
      <trkpt lat="48.83982" lon="2.30174">
        <ele>52.20000076294</ele>
        <time>2015-08-31T20:54:49Z</time>
      </trkpt>
      <trkpt lat="48.83988" lon="2.30203">
        <ele>51.599998474121</ele>
        <time>2015-08-31T20:54:55Z</time>
      </trkpt>
      <trkpt lat="48.83998" lon="2.30232">
        <ele>52.20000076294</ele>
        <time>2015-08-31T20:55:01Z</time>
      </trkpt>
      <trkpt lat="48.84003" lon="2.3026">
        <ele>55.400001525879</ele>
        <time>2015-08-31T20:55:06Z</time>
      </trkpt>
      <trkpt lat="48.84011" lon="2.30285">
        <ele>58</ele>
        <time>2015-08-31T20:55:11Z</time>
      </trkpt>
      <trkpt lat="48.84022" lon="2.30308">
        <ele>60.400001525879</ele>
        <time>2015-08-31T20:55:14Z</time>
      </trkpt>
      <trkpt lat="48.8403" lon="2.30332">
        <ele>61.79999923706</ele>
        <time>2015-08-31T20:55:17Z</time>
      </trkpt>
      <trkpt lat="48.84037" lon="2.30368">
        <ele>64.599998474121</ele>
        <time>2015-08-31T20:55:21Z</time>
      </trkpt>
      <trkpt lat="48.84047" lon="2.30394">
        <ele>65.800003051758</ele>
        <time>2015-08-31T20:55:24Z</time>
      </trkpt>
      <trkpt lat="48.84059" lon="2.30424">
        <ele>67.199996948242</ele>
        <time>2015-08-31T20:55:28Z</time>
      </trkpt>
      <trkpt lat="48.84059" lon="2.30431">
        <ele>67.199996948242</ele>
        <time>2015-08-31T20:55:29Z</time>
      </trkpt>
      <trkpt lat="48.84067" lon="2.30457">
        <ele>67.599998474121</ele>
        <time>2015-08-31T20:55:33Z</time>
      </trkpt>
      <trkpt lat="48.84078" lon="2.30484">
        <ele>67.599998474121</ele>
        <time>2015-08-31T20:55:37Z</time>
      </trkpt>
      <trkpt lat="48.8408" lon="2.30499">
        <ele>66.400001525879</ele>
        <time>2015-08-31T20:55:39Z</time>
      </trkpt>
      <trkpt lat="48.84087" lon="2.30529">
        <ele>64.599998474121</ele>
        <time>2015-08-31T20:55:43Z</time>
      </trkpt>
      <trkpt lat="48.841" lon="2.30558">
        <ele>62.599998474121</ele>
        <time>2015-08-31T20:55:47Z</time>
      </trkpt>
      <trkpt lat="48.84108" lon="2.30592">
        <ele>62</ele>
        <time>2015-08-31T20:55:51Z</time>
      </trkpt>
      <trkpt lat="48.84112" lon="2.30619">
        <ele>61.20000076294</ele>
        <time>2015-08-31T20:55:54Z</time>
      </trkpt>
      <trkpt lat="48.84118" lon="2.30646">
        <ele>60.400001525879</ele>
        <time>2015-08-31T20:55:57Z</time>
      </trkpt>
      <trkpt lat="48.84123" lon="2.30678">
        <ele>59.599998474121</ele>
        <time>2015-08-31T20:56:01Z</time>
      </trkpt>
      <trkpt lat="48.84134" lon="2.30709">
        <ele>59</ele>
        <time>2015-08-31T20:56:05Z</time>
      </trkpt>
      <trkpt lat="48.84144" lon="2.30732">
        <ele>58.400001525879</ele>
        <time>2015-08-31T20:56:08Z</time>
      </trkpt>
      <trkpt lat="48.84156" lon="2.30762">
        <ele>57.20000076294</ele>
        <time>2015-08-31T20:56:12Z</time>
      </trkpt>
      <trkpt lat="48.84168" lon="2.30788">
        <ele>55</ele>
        <time>2015-08-31T20:56:16Z</time>
      </trkpt>
      <trkpt lat="48.84178" lon="2.30814">
        <ele>53.79999923706</ele>
        <time>2015-08-31T20:56:20Z</time>
      </trkpt>
      <trkpt lat="48.84185" lon="2.30842">
        <ele>52.79999923706</ele>
        <time>2015-08-31T20:56:24Z</time>
      </trkpt>
      <trkpt lat="48.84192" lon="2.30869">
        <ele>51</ele>
        <time>2015-08-31T20:56:28Z</time>
      </trkpt>
      <trkpt lat="48.842" lon="2.30896">
        <ele>49.400001525879</ele>
        <time>2015-08-31T20:56:32Z</time>
      </trkpt>
      <trkpt lat="48.84214" lon="2.3092">
        <ele>48</ele>
        <time>2015-08-31T20:56:36Z</time>
      </trkpt>
      <trkpt lat="48.84226" lon="2.30946">
        <ele>45.20000076294</ele>
        <time>2015-08-31T20:56:40Z</time>
      </trkpt>
      <trkpt lat="48.84234" lon="2.30974">
        <ele>44.400001525879</ele>
        <time>2015-08-31T20:56:44Z</time>
      </trkpt>
      <trkpt lat="48.84237" lon="2.31003">
        <ele>43.400001525879</ele>
        <time>2015-08-31T20:56:48Z</time>
      </trkpt>
      <trkpt lat="48.84236" lon="2.31019">
        <ele>42.20000076294</ele>
        <time>2015-08-31T20:56:50Z</time>
      </trkpt>
      <trkpt lat="48.8424" lon="2.31047">
        <ele>41.400001525879</ele>
        <time>2015-08-31T20:56:54Z</time>
      </trkpt>
      <trkpt lat="48.84249" lon="2.31073">
        <ele>41</ele>
        <time>2015-08-31T20:56:58Z</time>
      </trkpt>
      <trkpt lat="48.84259" lon="2.31098">
        <ele>40.400001525879</ele>
        <time>2015-08-31T20:57:02Z</time>
      </trkpt>
      <trkpt lat="48.8427" lon="2.31122">
        <ele>39.400001525879</ele>
        <time>2015-08-31T20:57:06Z</time>
      </trkpt>
      <trkpt lat="48.84283" lon="2.31143">
        <ele>39</ele>
        <time>2015-08-31T20:57:10Z</time>
      </trkpt>
      <trkpt lat="48.84284" lon="2.3115">
        <ele>39</ele>
        <time>2015-08-31T20:57:11Z</time>
      </trkpt>
      <trkpt lat="48.84294" lon="2.3118">
        <ele>38.599998474121</ele>
        <time>2015-08-31T20:57:16Z</time>
      </trkpt>
      <trkpt lat="48.84302" lon="2.31204">
        <ele>38.599998474121</ele>
        <time>2015-08-31T20:57:20Z</time>
      </trkpt>
      <trkpt lat="48.84307" lon="2.31235">
        <ele>37.79999923706</ele>
        <time>2015-08-31T20:57:26Z</time>
      </trkpt>
      <trkpt lat="48.84305" lon="2.31243">
        <ele>36.20000076294</ele>
        <time>2015-08-31T20:57:28Z</time>
      </trkpt>
      <trkpt lat="48.84298" lon="2.31254">
        <ele>34</ele>
        <time>2015-08-31T20:57:32Z</time>
      </trkpt>
      <trkpt lat="48.84297" lon="2.31254">
        <ele>33.79999923706</ele>
        <time>2015-08-31T20:57:33Z</time>
      </trkpt>
      <trkpt lat="48.84289" lon="2.31255">
        <ele>34.79999923706</ele>
        <time>2015-08-31T20:59:04Z</time>
      </trkpt>
      <trkpt lat="48.84298" lon="2.31281">
        <ele>34.599998474121</ele>
        <time>2015-08-31T20:59:11Z</time>
      </trkpt>
      <trkpt lat="48.84307" lon="2.31307">
        <ele>34.400001525879</ele>
        <time>2015-08-31T20:59:16Z</time>
      </trkpt>
      <trkpt lat="48.84316" lon="2.31332">
        <ele>34.599998474121</ele>
        <time>2015-08-31T20:59:20Z</time>
      </trkpt>
      <trkpt lat="48.84327" lon="2.31357">
        <ele>34.599998474121</ele>
        <time>2015-08-31T20:59:24Z</time>
      </trkpt>
      <trkpt lat="48.84337" lon="2.31387">
        <ele>34.599998474121</ele>
        <time>2015-08-31T20:59:29Z</time>
      </trkpt>
      <trkpt lat="48.8435" lon="2.31413">
        <ele>34.79999923706</ele>
        <time>2015-08-31T20:59:33Z</time>
      </trkpt>
      <trkpt lat="48.84362" lon="2.31441">
        <ele>34.79999923706</ele>
        <time>2015-08-31T20:59:37Z</time>
      </trkpt>
      <trkpt lat="48.84374" lon="2.3147">
        <ele>34.79999923706</ele>
        <time>2015-08-31T20:59:41Z</time>
      </trkpt>
      <trkpt lat="48.84388" lon="2.31496">
        <ele>35</ele>
        <time>2015-08-31T20:59:45Z</time>
      </trkpt>
      <trkpt lat="48.84397" lon="2.31523">
        <ele>34.79999923706</ele>
        <time>2015-08-31T20:59:49Z</time>
      </trkpt>
      <trkpt lat="48.84405" lon="2.31548">
        <ele>35</ele>
        <time>2015-08-31T20:59:53Z</time>
      </trkpt>
      <trkpt lat="48.8441" lon="2.3158">
        <ele>35</ele>
        <time>2015-08-31T20:59:58Z</time>
      </trkpt>
      <trkpt lat="48.84416" lon="2.31611">
        <ele>34.79999923706</ele>
        <time>2015-08-31T21:00:02Z</time>
      </trkpt>
      <trkpt lat="48.8442" lon="2.3164">
        <ele>35.20000076294</ele>
        <time>2015-08-31T21:00:05Z</time>
      </trkpt>
      <trkpt lat="48.84429" lon="2.31671">
        <ele>35.599998474121</ele>
        <time>2015-08-31T21:00:09Z</time>
      </trkpt>
      <trkpt lat="48.84441" lon="2.31702">
        <ele>35.79999923706</ele>
        <time>2015-08-31T21:00:13Z</time>
      </trkpt>
      <trkpt lat="48.84452" lon="2.31732">
        <ele>36.20000076294</ele>
        <time>2015-08-31T21:00:17Z</time>
      </trkpt>
      <trkpt lat="48.84456" lon="2.31739">
        <ele>36.400001525879</ele>
        <time>2015-08-31T21:00:18Z</time>
      </trkpt>
      <trkpt lat="48.84456" lon="2.31756">
        <ele>36.79999923706</ele>
        <time>2015-08-31T21:00:20Z</time>
      </trkpt>
      <trkpt lat="48.84461" lon="2.31781">
        <ele>37.79999923706</ele>
        <time>2015-08-31T21:00:23Z</time>
      </trkpt>
      <trkpt lat="48.84469" lon="2.31809">
        <ele>38.79999923706</ele>
        <time>2015-08-31T21:00:27Z</time>
      </trkpt>
      <trkpt lat="48.84478" lon="2.31842">
        <ele>39</ele>
        <time>2015-08-31T21:00:31Z</time>
      </trkpt>
      <trkpt lat="48.84486" lon="2.31874">
        <ele>39.400001525879</ele>
        <time>2015-08-31T21:00:35Z</time>
      </trkpt>
      <trkpt lat="48.84496" lon="2.31906">
        <ele>39.79999923706</ele>
        <time>2015-08-31T21:00:39Z</time>
      </trkpt>
      <trkpt lat="48.84506" lon="2.31931">
        <ele>40.20000076294</ele>
        <time>2015-08-31T21:00:42Z</time>
      </trkpt>
      <trkpt lat="48.84516" lon="2.31962">
        <ele>40.599998474121</ele>
        <time>2015-08-31T21:00:46Z</time>
      </trkpt>
      <trkpt lat="48.8451" lon="2.31984">
        <ele>41</ele>
        <time>2015-08-31T21:00:49Z</time>
      </trkpt>
      <trkpt lat="48.84511" lon="2.32009">
        <ele>38.599998474121</ele>
        <time>2015-08-31T21:00:56Z</time>
      </trkpt>
      <trkpt lat="48.84512" lon="2.32013">
        <ele>38.79999923706</ele>
        <time>2015-08-31T21:00:59Z</time>
      </trkpt>
      <trkpt lat="48.84507" lon="2.32014">
        <ele>38.400001525879</ele>
        <time>2015-08-31T21:01:04Z</time>
      </trkpt>
      <trkpt lat="48.84505" lon="2.32011">
        <ele>35.79999923706</ele>
        <time>2015-08-31T21:01:29Z</time>
      </trkpt>
      <trkpt lat="48.84516" lon="2.32031">
        <ele>36.599998474121</ele>
        <time>2015-08-31T21:01:35Z</time>
      </trkpt>
      <trkpt lat="48.84525" lon="2.32055">
        <ele>36.599998474121</ele>
        <time>2015-08-31T21:01:40Z</time>
      </trkpt>
      <trkpt lat="48.84534" lon="2.32079">
        <ele>36.400001525879</ele>
        <time>2015-08-31T21:01:44Z</time>
      </trkpt>
      <trkpt lat="48.84541" lon="2.32104">
        <ele>36.20000076294</ele>
        <time>2015-08-31T21:01:47Z</time>
      </trkpt>
      <trkpt lat="48.84553" lon="2.32134">
        <ele>36.20000076294</ele>
        <time>2015-08-31T21:01:50Z</time>
      </trkpt>
      <trkpt lat="48.8456" lon="2.32164">
        <ele>36</ele>
        <time>2015-08-31T21:01:53Z</time>
      </trkpt>
      <trkpt lat="48.84577" lon="2.32193">
        <ele>36</ele>
        <time>2015-08-31T21:01:56Z</time>
      </trkpt>
      <trkpt lat="48.8459" lon="2.32223">
        <ele>35.79999923706</ele>
        <time>2015-08-31T21:01:59Z</time>
      </trkpt>
      <trkpt lat="48.84604" lon="2.32252">
        <ele>35.79999923706</ele>
        <time>2015-08-31T21:02:02Z</time>
      </trkpt>
      <trkpt lat="48.84604" lon="2.32264">
        <ele>35.79999923706</ele>
        <time>2015-08-31T21:02:03Z</time>
      </trkpt>
      <trkpt lat="48.84612" lon="2.32295">
        <ele>36</ele>
        <time>2015-08-31T21:02:06Z</time>
      </trkpt>
      <trkpt lat="48.84617" lon="2.32326">
        <ele>36.20000076294</ele>
        <time>2015-08-31T21:02:09Z</time>
      </trkpt>
      <trkpt lat="48.84622" lon="2.32357">
        <ele>36.20000076294</ele>
        <time>2015-08-31T21:02:12Z</time>
      </trkpt>
      <trkpt lat="48.84628" lon="2.32386">
        <ele>36</ele>
        <time>2015-08-31T21:02:15Z</time>
      </trkpt>
      <trkpt lat="48.84637" lon="2.32413">
        <ele>36</ele>
        <time>2015-08-31T21:02:19Z</time>
      </trkpt>
      <trkpt lat="48.8464" lon="2.32417">
        <ele>36</ele>
        <time>2015-08-31T21:02:20Z</time>
      </trkpt>
      <trkpt lat="48.84647" lon="2.3245">
        <ele>35.20000076294</ele>
        <time>2015-08-31T21:02:25Z</time>
      </trkpt>
      <trkpt lat="48.84658" lon="2.32479">
        <ele>35</ele>
        <time>2015-08-31T21:02:29Z</time>
      </trkpt>
      <trkpt lat="48.84669" lon="2.32507">
        <ele>35</ele>
        <time>2015-08-31T21:02:33Z</time>
      </trkpt>
      <trkpt lat="48.84677" lon="2.32537">
        <ele>35</ele>
        <time>2015-08-31T21:02:37Z</time>
      </trkpt>
      <trkpt lat="48.84684" lon="2.32567">
        <ele>35.400001525879</ele>
        <time>2015-08-31T21:02:41Z</time>
      </trkpt>
      <trkpt lat="48.84692" lon="2.32581">
        <ele>35.79999923706</ele>
        <time>2015-08-31T21:02:43Z</time>
      </trkpt>
      <trkpt lat="48.84701" lon="2.32609">
        <ele>35.79999923706</ele>
        <time>2015-08-31T21:02:47Z</time>
      </trkpt>
      <trkpt lat="48.84708" lon="2.32622">
        <ele>36</ele>
        <time>2015-08-31T21:02:49Z</time>
      </trkpt>
      <trkpt lat="48.84719" lon="2.32651">
        <ele>36.599998474121</ele>
        <time>2015-08-31T21:02:53Z</time>
      </trkpt>
      <trkpt lat="48.84719" lon="2.32665">
        <ele>36.599998474121</ele>
        <time>2015-08-31T21:02:55Z</time>
      </trkpt>
      <trkpt lat="48.8472" lon="2.327">
        <ele>37</ele>
        <time>2015-08-31T21:03:00Z</time>
      </trkpt>
      <trkpt lat="48.84725" lon="2.32711">
        <ele>37</ele>
        <time>2015-08-31T21:03:02Z</time>
      </trkpt>
      <trkpt lat="48.84736" lon="2.32735">
        <ele>37</ele>
        <time>2015-08-31T21:03:06Z</time>
      </trkpt>
      <trkpt lat="48.84747" lon="2.3276">
        <ele>38.599998474121</ele>
        <time>2015-08-31T21:03:10Z</time>
      </trkpt>
      <trkpt lat="48.84758" lon="2.32783">
        <ele>39.79999923706</ele>
        <time>2015-08-31T21:03:14Z</time>
      </trkpt>
      <trkpt lat="48.84763" lon="2.32814">
        <ele>39.599998474121</ele>
        <time>2015-08-31T21:03:19Z</time>
      </trkpt>
      <trkpt lat="48.84769" lon="2.32839">
        <ele>40.20000076294</ele>
        <time>2015-08-31T21:03:23Z</time>
      </trkpt>
      <trkpt lat="48.84779" lon="2.32865">
        <ele>41</ele>
        <time>2015-08-31T21:03:28Z</time>
      </trkpt>
      <trkpt lat="48.84787" lon="2.3289">
        <ele>41.599998474121</ele>
        <time>2015-08-31T21:03:32Z</time>
      </trkpt>
      <trkpt lat="48.84791" lon="2.32921">
        <ele>41.599998474121</ele>
        <time>2015-08-31T21:03:36Z</time>
      </trkpt>
      <trkpt lat="48.84798" lon="2.32946">
        <ele>41.79999923706</ele>
        <time>2015-08-31T21:03:39Z</time>
      </trkpt>
      <trkpt lat="48.84806" lon="2.32976">
        <ele>42.400001525879</ele>
        <time>2015-08-31T21:03:43Z</time>
      </trkpt>
      <trkpt lat="48.84814" lon="2.33007">
        <ele>42.599998474121</ele>
        <time>2015-08-31T21:03:47Z</time>
      </trkpt>
      <trkpt lat="48.84822" lon="2.33039">
        <ele>43.20000076294</ele>
        <time>2015-08-31T21:03:51Z</time>
      </trkpt>
      <trkpt lat="48.84825" lon="2.33078">
        <ele>43.79999923706</ele>
        <time>2015-08-31T21:03:55Z</time>
      </trkpt>
      <trkpt lat="48.84832" lon="2.33109">
        <ele>43.599998474121</ele>
        <time>2015-08-31T21:03:59Z</time>
      </trkpt>
      <trkpt lat="48.84845" lon="2.33135">
        <ele>43.79999923706</ele>
        <time>2015-08-31T21:04:03Z</time>
      </trkpt>
      <trkpt lat="48.84855" lon="2.33162">
        <ele>44</ele>
        <time>2015-08-31T21:04:07Z</time>
      </trkpt>
      <trkpt lat="48.84862" lon="2.3319">
        <ele>44.20000076294</ele>
        <time>2015-08-31T21:04:11Z</time>
      </trkpt>
      <trkpt lat="48.84874" lon="2.33217">
        <ele>44.79999923706</ele>
        <time>2015-08-31T21:04:16Z</time>
      </trkpt>
      <trkpt lat="48.84893" lon="2.33233">
        <ele>45.599998474121</ele>
        <time>2015-08-31T21:04:20Z</time>
      </trkpt>
      <trkpt lat="48.84898" lon="2.33242">
        <ele>45.79999923706</ele>
        <time>2015-08-31T21:04:22Z</time>
      </trkpt>
      <trkpt lat="48.84906" lon="2.3327">
        <ele>45.79999923706</ele>
        <time>2015-08-31T21:04:27Z</time>
      </trkpt>
      <trkpt lat="48.84908" lon="2.33304">
        <ele>46.400001525879</ele>
        <time>2015-08-31T21:04:31Z</time>
      </trkpt>
      <trkpt lat="48.84908" lon="2.33311">
        <ele>46.599998474121</ele>
        <time>2015-08-31T21:04:32Z</time>
      </trkpt>
      <trkpt lat="48.84911" lon="2.33342">
        <ele>47.20000076294</ele>
        <time>2015-08-31T21:04:37Z</time>
      </trkpt>
      <trkpt lat="48.84917" lon="2.33373">
        <ele>48</ele>
        <time>2015-08-31T21:04:42Z</time>
      </trkpt>
      <trkpt lat="48.84922" lon="2.33396">
        <ele>48.599998474121</ele>
        <time>2015-08-31T21:04:45Z</time>
      </trkpt>
      <trkpt lat="48.84929" lon="2.33428">
        <ele>49.20000076294</ele>
        <time>2015-08-31T21:04:49Z</time>
      </trkpt>
      <trkpt lat="48.84938" lon="2.33456">
        <ele>50.599998474121</ele>
        <time>2015-08-31T21:04:53Z</time>
      </trkpt>
      <trkpt lat="48.84944" lon="2.33489">
        <ele>51.599998474121</ele>
        <time>2015-08-31T21:04:58Z</time>
      </trkpt>
      <trkpt lat="48.84939" lon="2.33506">
        <ele>53.20000076294</ele>
        <time>2015-08-31T21:05:00Z</time>
      </trkpt>
      <trkpt lat="48.84941" lon="2.33537">
        <ele>54.20000076294</ele>
        <time>2015-08-31T21:05:04Z</time>
      </trkpt>
      <trkpt lat="48.84944" lon="2.33564">
        <ele>55</ele>
        <time>2015-08-31T21:05:07Z</time>
      </trkpt>
      <trkpt lat="48.84945" lon="2.33595">
        <ele>55.20000076294</ele>
        <time>2015-08-31T21:05:10Z</time>
      </trkpt>
      <trkpt lat="48.84947" lon="2.33625">
        <ele>54.20000076294</ele>
        <time>2015-08-31T21:05:13Z</time>
      </trkpt>
      <trkpt lat="48.84948" lon="2.33655">
        <ele>52.400001525879</ele>
        <time>2015-08-31T21:05:16Z</time>
      </trkpt>
      <trkpt lat="48.84949" lon="2.33687">
        <ele>50.20000076294</ele>
        <time>2015-08-31T21:05:19Z</time>
      </trkpt>
      <trkpt lat="48.84951" lon="2.33717">
        <ele>48.79999923706</ele>
        <time>2015-08-31T21:05:22Z</time>
      </trkpt>
      <trkpt lat="48.84949" lon="2.33746">
        <ele>48.400001525879</ele>
        <time>2015-08-31T21:05:25Z</time>
      </trkpt>
      <trkpt lat="48.84943" lon="2.33774">
        <ele>46.20000076294</ele>
        <time>2015-08-31T21:05:28Z</time>
      </trkpt>
      <trkpt lat="48.84937" lon="2.338">
        <ele>45.79999923706</ele>
        <time>2015-08-31T21:05:31Z</time>
      </trkpt>
      <trkpt lat="48.84934" lon="2.33829">
        <ele>46</ele>
        <time>2015-08-31T21:05:35Z</time>
      </trkpt>
      <trkpt lat="48.84934" lon="2.33843">
        <ele>46</ele>
        <time>2015-08-31T21:05:37Z</time>
      </trkpt>
      <trkpt lat="48.84926" lon="2.33861">
        <ele>44.79999923706</ele>
        <time>2015-08-31T21:05:40Z</time>
      </trkpt>
      <trkpt lat="48.84917" lon="2.33892">
        <ele>43.599998474121</ele>
        <time>2015-08-31T21:05:45Z</time>
      </trkpt>
      <trkpt lat="48.84916" lon="2.33904">
        <ele>42.599998474121</ele>
        <time>2015-08-31T21:05:47Z</time>
      </trkpt>
      <trkpt lat="48.84915" lon="2.3391">
        <ele>42.400001525879</ele>
        <time>2015-08-31T21:05:48Z</time>
      </trkpt>
      <trkpt lat="48.8491" lon="2.33939">
        <ele>38.599998474121</ele>
        <time>2015-08-31T21:05:53Z</time>
      </trkpt>
      <trkpt lat="48.84903" lon="2.33968">
        <ele>35.400001525879</ele>
        <time>2015-08-31T21:05:58Z</time>
      </trkpt>
      <trkpt lat="48.84901" lon="2.33979">
        <ele>33.599998474121</ele>
        <time>2015-08-31T21:06:00Z</time>
      </trkpt>
      <trkpt lat="48.84899" lon="2.33999">
        <ele>30.799999237061</ele>
        <time>2015-08-31T21:06:04Z</time>
      </trkpt>
      <trkpt lat="48.84899" lon="2.34022">
        <ele>28.60000038147</ele>
        <time>2015-08-31T21:06:09Z</time>
      </trkpt>
      <trkpt lat="48.84893" lon="2.34038">
        <ele>26.60000038147</ele>
        <time>2015-08-31T21:06:12Z</time>
      </trkpt>
      <trkpt lat="48.84897" lon="2.34067">
        <ele>23.799999237061</ele>
        <time>2015-08-31T21:06:17Z</time>
      </trkpt>
      <trkpt lat="48.84896" lon="2.34092">
        <ele>21.799999237061</ele>
        <time>2015-08-31T21:06:20Z</time>
      </trkpt>
      <trkpt lat="48.84896" lon="2.34118">
        <ele>21.200000762939</ele>
        <time>2015-08-31T21:06:23Z</time>
      </trkpt>
      <trkpt lat="48.84896" lon="2.34132">
        <ele>21.39999961853</ele>
        <time>2015-08-31T21:06:25Z</time>
      </trkpt>
      <trkpt lat="48.84898" lon="2.34143">
        <ele>23</ele>
        <time>2015-08-31T21:06:27Z</time>
      </trkpt>
      <trkpt lat="48.84897" lon="2.34155">
        <ele>26</ele>
        <time>2015-08-31T21:06:31Z</time>
      </trkpt>
      <trkpt lat="48.84896" lon="2.34157">
        <ele>26.60000038147</ele>
        <time>2015-08-31T21:06:32Z</time>
      </trkpt>
      <trkpt lat="48.84896" lon="2.34161">
        <ele>28.799999237061</ele>
        <time>2015-08-31T21:06:36Z</time>
      </trkpt>
      <trkpt lat="48.84875" lon="2.3416">
        <ele>49.20000076294</ele>
        <time>2015-08-31T21:07:42Z</time>
      </trkpt>
      <trkpt lat="48.84882" lon="2.34191">
        <ele>51.400001525879</ele>
        <time>2015-08-31T21:08:07Z</time>
      </trkpt>
      <trkpt lat="48.84899" lon="2.34207">
        <ele>50.599998474121</ele>
        <time>2015-08-31T21:08:13Z</time>
      </trkpt>
      <trkpt lat="48.84919" lon="2.3422">
        <ele>49.79999923706</ele>
        <time>2015-08-31T21:08:17Z</time>
      </trkpt>
      <trkpt lat="48.84939" lon="2.34232">
        <ele>49.20000076294</ele>
        <time>2015-08-31T21:08:21Z</time>
      </trkpt>
      <trkpt lat="48.84957" lon="2.3424">
        <ele>48.79999923706</ele>
        <time>2015-08-31T21:08:24Z</time>
      </trkpt>
      <trkpt lat="48.8498" lon="2.34252">
        <ele>48.400001525879</ele>
        <time>2015-08-31T21:08:28Z</time>
      </trkpt>
      <trkpt lat="48.85002" lon="2.3426">
        <ele>47</ele>
        <time>2015-08-31T21:08:31Z</time>
      </trkpt>
      <trkpt lat="48.85022" lon="2.34267">
        <ele>45</ele>
        <time>2015-08-31T21:08:34Z</time>
      </trkpt>
      <trkpt lat="48.85039" lon="2.34279">
        <ele>43.599998474121</ele>
        <time>2015-08-31T21:08:37Z</time>
      </trkpt>
      <trkpt lat="48.85058" lon="2.34288">
        <ele>41.79999923706</ele>
        <time>2015-08-31T21:08:40Z</time>
      </trkpt>
      <trkpt lat="48.8508" lon="2.34304">
        <ele>40.20000076294</ele>
        <time>2015-08-31T21:08:44Z</time>
      </trkpt>
      <trkpt lat="48.85086" lon="2.34307">
        <ele>39.599998474121</ele>
        <time>2015-08-31T21:08:45Z</time>
      </trkpt>
      <trkpt lat="48.85107" lon="2.34316">
        <ele>38.599998474121</ele>
        <time>2015-08-31T21:08:49Z</time>
      </trkpt>
      <trkpt lat="48.85128" lon="2.34325">
        <ele>35.400001525879</ele>
        <time>2015-08-31T21:08:52Z</time>
      </trkpt>
      <trkpt lat="48.85149" lon="2.34333">
        <ele>32.20000076294</ele>
        <time>2015-08-31T21:08:56Z</time>
      </trkpt>
      <trkpt lat="48.85163" lon="2.3434">
        <ele>31</ele>
        <time>2015-08-31T21:08:59Z</time>
      </trkpt>
      <trkpt lat="48.85182" lon="2.34346">
        <ele>28.799999237061</ele>
        <time>2015-08-31T21:09:03Z</time>
      </trkpt>
      <trkpt lat="48.85199" lon="2.34356">
        <ele>27.39999961853</ele>
        <time>2015-08-31T21:09:08Z</time>
      </trkpt>
      <trkpt lat="48.85218" lon="2.34366">
        <ele>26.200000762939</ele>
        <time>2015-08-31T21:09:13Z</time>
      </trkpt>
      <trkpt lat="48.85232" lon="2.34375">
        <ele>25.60000038147</ele>
        <time>2015-08-31T21:09:17Z</time>
      </trkpt>
      <trkpt lat="48.85247" lon="2.34381">
        <ele>24.200000762939</ele>
        <time>2015-08-31T21:09:20Z</time>
      </trkpt>
      <trkpt lat="48.85266" lon="2.34393">
        <ele>22.39999961853</ele>
        <time>2015-08-31T21:09:24Z</time>
      </trkpt>
      <trkpt lat="48.85285" lon="2.34402">
        <ele>20.200000762939</ele>
        <time>2015-08-31T21:09:28Z</time>
      </trkpt>
      <trkpt lat="48.85303" lon="2.34406">
        <ele>17.799999237061</ele>
        <time>2015-08-31T21:09:31Z</time>
      </trkpt>
      <trkpt lat="48.85318" lon="2.3441">
        <ele>16.799999237061</ele>
        <time>2015-08-31T21:09:34Z</time>
      </trkpt>
      <trkpt lat="48.85337" lon="2.34428">
        <ele>16.39999961853</ele>
        <time>2015-08-31T21:09:38Z</time>
      </trkpt>
      <trkpt lat="48.85355" lon="2.34444">
        <ele>15.60000038147</ele>
        <time>2015-08-31T21:09:43Z</time>
      </trkpt>
      <trkpt lat="48.85361" lon="2.34447">
        <ele>16.200000762939</ele>
        <time>2015-08-31T21:09:48Z</time>
      </trkpt>
      <trkpt lat="48.85362" lon="2.34447">
        <ele>17</ele>
        <time>2015-08-31T21:09:49Z</time>
      </trkpt>
      <trkpt lat="48.85384" lon="2.34455">
        <ele>26.200000762939</ele>
        <time>2015-08-31T21:10:10Z</time>
      </trkpt>
      <trkpt lat="48.85402" lon="2.34473">
        <ele>26</ele>
        <time>2015-08-31T21:10:16Z</time>
      </trkpt>
      <trkpt lat="48.8542" lon="2.34493">
        <ele>25.60000038147</ele>
        <time>2015-08-31T21:10:21Z</time>
      </trkpt>
      <trkpt lat="48.85436" lon="2.3451">
        <ele>24.39999961853</ele>
        <time>2015-08-31T21:10:26Z</time>
      </trkpt>
      <trkpt lat="48.85452" lon="2.34525">
        <ele>22.799999237061</ele>
        <time>2015-08-31T21:10:32Z</time>
      </trkpt>
      <trkpt lat="48.8547" lon="2.34543">
        <ele>22.39999961853</ele>
        <time>2015-08-31T21:10:40Z</time>
      </trkpt>
      <trkpt lat="48.85486" lon="2.34559">
        <ele>24</ele>
        <time>2015-08-31T21:10:46Z</time>
      </trkpt>
      <trkpt lat="48.85507" lon="2.34571">
        <ele>25.39999961853</ele>
        <time>2015-08-31T21:10:52Z</time>
      </trkpt>
      <trkpt lat="48.85526" lon="2.34591">
        <ele>25</ele>
        <time>2015-08-31T21:10:55Z</time>
      </trkpt>
      <trkpt lat="48.85544" lon="2.34604">
        <ele>25.60000038147</ele>
        <time>2015-08-31T21:10:59Z</time>
      </trkpt>
      <trkpt lat="48.85561" lon="2.34612">
        <ele>26.60000038147</ele>
        <time>2015-08-31T21:11:04Z</time>
      </trkpt>
      <trkpt lat="48.85566" lon="2.34613">
        <ele>27</ele>
        <time>2015-08-31T21:11:06Z</time>
      </trkpt>
      <trkpt lat="48.85569" lon="2.34616">
        <ele>27.60000038147</ele>
        <time>2015-08-31T21:11:08Z</time>
      </trkpt>
      <trkpt lat="48.85585" lon="2.3463">
        <ele>30.200000762939</ele>
        <time>2015-08-31T21:11:15Z</time>
      </trkpt>
      <trkpt lat="48.85607" lon="2.34634">
        <ele>29.799999237061</ele>
        <time>2015-08-31T21:11:20Z</time>
      </trkpt>
      <trkpt lat="48.85629" lon="2.34639">
        <ele>29.60000038147</ele>
        <time>2015-08-31T21:11:25Z</time>
      </trkpt>
      <trkpt lat="48.85648" lon="2.34653">
        <ele>28.799999237061</ele>
        <time>2015-08-31T21:11:30Z</time>
      </trkpt>
      <trkpt lat="48.85667" lon="2.34663">
        <ele>28.799999237061</ele>
        <time>2015-08-31T21:11:35Z</time>
      </trkpt>
      <trkpt lat="48.85686" lon="2.34674">
        <ele>29.39999961853</ele>
        <time>2015-08-31T21:11:40Z</time>
      </trkpt>
      <trkpt lat="48.85704" lon="2.34682">
        <ele>30.39999961853</ele>
        <time>2015-08-31T21:11:44Z</time>
      </trkpt>
      <trkpt lat="48.85717" lon="2.34686">
        <ele>30.200000762939</ele>
        <time>2015-08-31T21:11:47Z</time>
      </trkpt>
      <trkpt lat="48.8573" lon="2.34687">
        <ele>30.60000038147</ele>
        <time>2015-08-31T21:11:50Z</time>
      </trkpt>
      <trkpt lat="48.8575" lon="2.3469">
        <ele>31.200000762939</ele>
        <time>2015-08-31T21:11:55Z</time>
      </trkpt>
      <trkpt lat="48.85762" lon="2.34694">
        <ele>31.799999237061</ele>
        <time>2015-08-31T21:11:58Z</time>
      </trkpt>
      <trkpt lat="48.85781" lon="2.34703">
        <ele>32.400001525879</ele>
        <time>2015-08-31T21:12:03Z</time>
      </trkpt>
      <trkpt lat="48.85785" lon="2.34706">
        <ele>33</ele>
        <time>2015-08-31T21:12:04Z</time>
      </trkpt>
      <trkpt lat="48.85792" lon="2.34711">
        <ele>33.400001525879</ele>
        <time>2015-08-31T21:12:06Z</time>
      </trkpt>
      <trkpt lat="48.85812" lon="2.34722">
        <ele>33.599998474121</ele>
        <time>2015-08-31T21:12:11Z</time>
      </trkpt>
      <trkpt lat="48.85817" lon="2.34723">
        <ele>33.599998474121</ele>
        <time>2015-08-31T21:12:12Z</time>
      </trkpt>
      <trkpt lat="48.85829" lon="2.3473">
        <ele>34.400001525879</ele>
        <time>2015-08-31T21:12:15Z</time>
      </trkpt>
      <trkpt lat="48.85848" lon="2.34735">
        <ele>34.20000076294</ele>
        <time>2015-08-31T21:12:19Z</time>
      </trkpt>
      <trkpt lat="48.85858" lon="2.34737">
        <ele>34.599998474121</ele>
        <time>2015-08-31T21:12:21Z</time>
      </trkpt>
      <trkpt lat="48.85877" lon="2.34734">
        <ele>31.60000038147</ele>
        <time>2015-08-31T21:12:24Z</time>
      </trkpt>
      <trkpt lat="48.8589" lon="2.34721">
        <ele>31</ele>
        <time>2015-08-31T21:12:28Z</time>
      </trkpt>
      <trkpt lat="48.85894" lon="2.34719">
        <ele>30.39999961853</ele>
        <time>2015-08-31T21:12:29Z</time>
      </trkpt>
      <trkpt lat="48.85911" lon="2.34715">
        <ele>29.799999237061</ele>
        <time>2015-08-31T21:12:36Z</time>
      </trkpt>
      <trkpt lat="48.85927" lon="2.34704">
        <ele>30.60000038147</ele>
        <time>2015-08-31T21:12:42Z</time>
      </trkpt>
      <trkpt lat="48.85938" lon="2.34698">
        <ele>30.200000762939</ele>
        <time>2015-08-31T21:12:46Z</time>
      </trkpt>
      <trkpt lat="48.85947" lon="2.34703">
        <ele>31.200000762939</ele>
        <time>2015-08-31T21:12:51Z</time>
      </trkpt>
    </trkseg>
  </trk>
</gpx>